PWSweather.com
Personal Weather Stations
Station Observations
DL5ARK
SonnebergDE

SonnebergDE

Lat: 50.34904861, Lon: 11.18112087

Elevation: 1214

Station Type: Selfmade

http://www.sumbarg.de

High Low Average
Temperature 44.6°F7.0°C 38.2°F3.4°C 40.5°F4.7°C
Dew Point 46.9°F8.3°C 40.7°F4.8°C 43.3°F6.3°C
Winds 20.3 mph 32.7 kmh Calm Calm 6.0 mph WNW9.7 kmh WNW
Wind Gusts 20.3 mph32.7 kmh -- 6.0 mph9.7 kmh
Humidity 91% 79% 87%
Pressure 29.71 in1006.1 mb 29.39 in995.3 mb -
Precipitation 0.28 in7.1 mm - -
Hour Temp Dew Point Humidity Winds Wind Gusts Pressure Precip Precip Rate Daily Precip Total
12:00 AM 44.6°F7.0°C 46.8°F8.2°C 85% 9.2 mph NNW14.8 kmh NNW 9.2 mph14.8 kmh 29.55 in1000.7 mb 0.00 in0.0 mm 0.00 in0.0 mm 0.00 in0.0 mm
12:06 AM 44.5°F6.9°C 46.8°F8.2°C 85% 7.3 mph NW11.7 kmh NW 7.3 mph11.7 kmh 29.56 in1001.0 mb 0.00 in0.0 mm 0.00 in0.0 mm 0.00 in0.0 mm
12:09 AM 44.4°F6.9°C 46.9°F8.3°C 85% 6.8 mph NW10.9 kmh NW 6.8 mph10.9 kmh 29.56 in1001.0 mb 0.00 in0.0 mm 0.00 in0.0 mm 0.00 in0.0 mm
12:12 AM 44.4°F6.9°C 46.7°F8.2°C 85% 8.9 mph NNW14.3 kmh NNW 9.0 mph14.5 kmh 29.56 in1001.0 mb 0.00 in0.0 mm 0.00 in0.0 mm 0.00 in0.0 mm
12:15 AM 44.2°F6.8°C 46.7°F8.2°C 85% 7.7 mph NW12.4 kmh NW 7.7 mph12.4 kmh 29.57 in1001.4 mb 0.00 in0.0 mm 0.00 in0.0 mm 0.00 in0.0 mm
12:18 AM 44.0°F6.7°C 46.5°F8.1°C 86% 9.3 mph NNW15.0 kmh NNW 9.3 mph15.0 kmh 29.58 in1001.7 mb 0.00 in0.0 mm 0.00 in0.0 mm 0.00 in0.0 mm
12:21 AM 43.6°F6.4°C 45.7°F7.6°C 84% 15.1 mph 24.3 kmh 15.2 mph24.5 kmh 29.58 in1001.7 mb 0.00 in0.0 mm 0.00 in0.0 mm 0.00 in0.0 mm
12:24 AM 43.4°F6.3°C 45.2°F7.3°C 83% 8.2 mph NW13.2 kmh NW 8.3 mph13.4 kmh 29.58 in1001.7 mb 0.00 in0.0 mm 0.00 in0.0 mm 0.00 in0.0 mm
12:27 AM 43.0°F6.1°C 44.3°F6.8°C 81% 20.3 mph NNW32.7 kmh NNW 20.3 mph32.7 kmh 29.58 in1001.7 mb 0.00 in0.0 mm 0.00 in0.0 mm 0.00 in0.0 mm
12:30 AM 42.8°F6.0°C 43.8°F6.6°C 80% 10.7 mph NNW17.2 kmh NNW 10.8 mph17.4 kmh 29.59 in1002.0 mb 0.00 in0.0 mm 0.00 in0.0 mm 0.00 in0.0 mm
12:33 AM 42.5°F5.8°C 43.9°F6.6°C 81% 6.9 mph W11.1 kmh W 6.9 mph11.1 kmh 29.59 in1002.0 mb 0.00 in0.0 mm 0.00 in0.0 mm 0.00 in0.0 mm
12:36 AM 42.1°F5.6°C 43.7°F6.5°C 80% 18.2 mph NNW29.3 kmh NNW 18.2 mph29.3 kmh 29.59 in1002.0 mb 0.00 in0.0 mm 0.00 in0.0 mm 0.00 in0.0 mm
12:39 AM 41.9°F5.5°C 43.2°F6.2°C 79% 6.5 mph NW10.5 kmh NW 6.5 mph10.5 kmh 29.59 in1002.0 mb 0.00 in0.0 mm 0.00 in0.0 mm 0.00 in0.0 mm
12:42 AM 41.9°F5.5°C 43.1°F6.2°C 80% 6.9 mph NW11.1 kmh NW 6.9 mph11.1 kmh 29.61 in1002.7 mb 0.00 in0.0 mm 0.00 in0.0 mm 0.00 in0.0 mm
12:45 AM 41.5°F5.3°C 43.2°F6.2°C 80% 9.7 mph NNW15.6 kmh NNW 9.7 mph15.6 kmh 29.61 in1002.7 mb 0.00 in0.0 mm 0.00 in0.0 mm 0.00 in0.0 mm
12:48 AM 41.5°F5.3°C 42.9°F6.1°C 79% 10.9 mph NNW17.5 kmh NNW 10.9 mph17.5 kmh 29.61 in1002.7 mb 0.00 in0.0 mm 0.00 in0.0 mm 0.00 in0.0 mm
12:51 AM 41.3°F5.2°C 42.9°F6.1°C 81% 4.5 mph NNW7.2 kmh NNW 4.5 mph7.2 kmh 29.61 in1002.7 mb 0.00 in0.0 mm 0.00 in0.0 mm 0.00 in0.0 mm
12:54 AM 40.9°F4.9°C 43.1°F6.2°C 80% 6.5 mph WNW10.5 kmh WNW 6.5 mph10.5 kmh 29.61 in1002.7 mb 0.00 in0.0 mm 0.00 in0.0 mm 0.00 in0.0 mm
12:57 AM 40.8°F4.9°C 43.3°F6.3°C 80% 8.1 mph 13.0 kmh 8.2 mph13.2 kmh 29.61 in1002.7 mb 0.00 in0.0 mm 0.00 in0.0 mm 0.00 in0.0 mm
01:00 AM 40.7°F4.8°C 42.9°F6.1°C 80% 8.3 mph NW13.4 kmh NW 8.4 mph13.5 kmh 29.61 in1002.7 mb 0.00 in0.0 mm 0.00 in0.0 mm 0.00 in0.0 mm
01:03 AM 40.8°F4.9°C 42.6°F5.9°C 80% 9.3 mph NW15.0 kmh NW 9.4 mph15.1 kmh 29.61 in1002.7 mb 0.00 in0.0 mm 0.00 in0.0 mm 0.00 in0.0 mm
01:06 AM 41.1°F5.1°C 42.6°F5.9°C 80% 8.1 mph NNW13.0 kmh NNW 8.1 mph13.0 kmh 29.62 in1003.0 mb 0.00 in0.0 mm 0.00 in0.0 mm 0.00 in0.0 mm
01:09 AM 40.9°F4.9°C 42.4°F5.8°C 80% 12.1 mph NNW19.5 kmh NNW 12.2 mph19.6 kmh 29.61 in1002.7 mb 0.00 in0.0 mm 0.00 in0.0 mm 0.00 in0.0 mm
01:12 AM 41.0°F5.0°C 42.3°F5.7°C 80% 6.0 mph 9.7 kmh 6.0 mph9.7 kmh 29.62 in1003.0 mb 0.00 in0.0 mm 0.00 in0.0 mm 0.00 in0.0 mm
01:15 AM 40.9°F4.9°C 42.6°F5.9°C 80% 4.8 mph NNW7.7 kmh NNW 4.9 mph7.9 kmh 29.62 in1003.0 mb 0.00 in0.0 mm 0.00 in0.0 mm 0.00 in0.0 mm
01:18 AM 41.1°F5.1°C 42.5°F5.8°C 80% 9.3 mph NNW15.0 kmh NNW 9.4 mph15.1 kmh 29.63 in1003.4 mb 0.00 in0.0 mm 0.00 in0.0 mm 0.00 in0.0 mm
01:21 AM 41.1°F5.1°C 42.5°F5.8°C 80% 11.3 mph 18.2 kmh 11.4 mph18.3 kmh 29.63 in1003.4 mb 0.00 in0.0 mm 0.00 in0.0 mm 0.00 in0.0 mm
01:24 AM 41.2°F5.1°C 42.8°F6.0°C 80% 4.0 mph W6.4 kmh W 4.0 mph6.4 kmh 29.63 in1003.4 mb 0.00 in0.0 mm 0.00 in0.0 mm 0.00 in0.0 mm
01:27 AM 41.0°F5.0°C 42.9°F6.1°C 81% 7.7 mph NW12.4 kmh NW 7.8 mph12.6 kmh 29.63 in1003.4 mb 0.00 in0.0 mm 0.00 in0.0 mm 0.00 in0.0 mm
01:30 AM 40.8°F4.9°C 42.9°F6.1°C 81% 9.5 mph NNW15.3 kmh NNW 9.6 mph15.4 kmh 29.64 in1003.7 mb 0.00 in0.0 mm 0.00 in0.0 mm 0.00 in0.0 mm
01:33 AM 40.7°F4.8°C 43.0°F6.1°C 81% 6.4 mph NNW10.3 kmh NNW 6.5 mph10.5 kmh 29.64 in1003.7 mb 0.00 in0.0 mm 0.00 in0.0 mm 0.00 in0.0 mm
01:36 AM 40.1°F4.5°C 43.1°F6.2°C 83% 8.8 mph NW14.2 kmh NW 8.9 mph14.3 kmh 29.64 in1003.7 mb 0.00 in0.0 mm 0.00 in0.0 mm 0.02 in0.5 mm
01:39 AM 39.9°F4.4°C 43.1°F6.2°C 83% 3.6 mph NNW5.8 kmh NNW 3.6 mph5.8 kmh 29.64 in1003.7 mb 0.00 in0.0 mm 0.00 in0.0 mm 0.02 in0.5 mm
01:42 AM 39.5°F4.2°C 43.1°F6.2°C 83% 7.3 mph NW11.7 kmh NW 7.3 mph11.7 kmh 29.64 in1003.7 mb 0.00 in0.0 mm 0.00 in0.0 mm 0.02 in0.5 mm
01:45 AM 39.5°F4.2°C 43.2°F6.2°C 83% 2.0 mph NW3.2 kmh NW 2.0 mph3.2 kmh 29.64 in1003.7 mb 0.00 in0.0 mm 0.00 in0.0 mm 0.02 in0.5 mm
01:48 AM 39.3°F4.1°C 43.2°F6.2°C 83% 3.6 mph NNW5.8 kmh NNW 3.7 mph6.0 kmh 29.64 in1003.7 mb 0.00 in0.0 mm 0.00 in0.0 mm 0.02 in0.5 mm
01:51 AM 39.2°F4.0°C 43.0°F6.1°C 82% 2.7 mph W4.3 kmh W 2.7 mph4.3 kmh 29.64 in1003.7 mb 0.00 in0.0 mm 0.00 in0.0 mm 0.02 in0.5 mm
01:54 AM 39.3°F4.1°C 42.9°F6.1°C 83% 3.2 mph NW5.1 kmh NW 3.2 mph5.1 kmh 29.64 in1003.7 mb 0.00 in0.0 mm 0.00 in0.0 mm 0.02 in0.5 mm
01:57 AM 39.5°F4.2°C 42.8°F6.0°C 83% 2.4 mph WNW3.9 kmh WNW 2.4 mph3.9 kmh 29.64 in1003.7 mb 0.00 in0.0 mm 0.00 in0.0 mm 0.02 in0.5 mm
02:00 AM 39.8°F4.3°C 42.9°F6.1°C 83% 6.5 mph NNW10.5 kmh NNW 6.5 mph10.5 kmh 29.64 in1003.7 mb 0.00 in0.0 mm 0.00 in0.0 mm 0.02 in0.5 mm
02:03 AM 39.9°F4.4°C 42.8°F6.0°C 83% 5.3 mph 8.5 kmh 5.3 mph8.5 kmh 29.64 in1003.7 mb 0.00 in0.0 mm 0.00 in0.0 mm 0.02 in0.5 mm
02:06 AM 39.7°F4.3°C 42.7°F5.9°C 83% 0.8 mph NW1.3 kmh NW 0.8 mph1.3 kmh 29.64 in1003.7 mb 0.00 in0.0 mm 0.00 in0.0 mm 0.02 in0.5 mm
02:09 AM 39.8°F4.3°C 42.8°F6.0°C 83% 4.0 mph NNW6.4 kmh NNW 4.1 mph6.6 kmh 29.64 in1003.7 mb 0.00 in0.0 mm 0.00 in0.0 mm 0.02 in0.5 mm
02:12 AM 39.9°F4.4°C 42.6°F5.9°C 83% 1.2 mph 1.9 kmh 1.2 mph1.9 kmh 29.64 in1003.7 mb 0.00 in0.0 mm 0.00 in0.0 mm 0.02 in0.5 mm
02:15 AM 39.9°F4.4°C 42.4°F5.8°C 82% 3.2 mph WNW5.1 kmh WNW 3.3 mph5.3 kmh 29.64 in1003.7 mb 0.00 in0.0 mm 0.00 in0.0 mm 0.02 in0.5 mm
02:18 AM 39.5°F4.2°C 42.5°F5.8°C 82% 2.8 mph NNW4.5 kmh NNW 2.8 mph4.5 kmh 29.64 in1003.7 mb 0.00 in0.0 mm 0.00 in0.0 mm 0.02 in0.5 mm
02:21 AM 39.5°F4.2°C 42.7°F5.9°C 82% 6.9 mph NW11.1 kmh NW 6.9 mph11.1 kmh 29.65 in1004.1 mb 0.00 in0.0 mm 0.00 in0.0 mm 0.02 in0.5 mm
02:24 AM 39.8°F4.3°C 42.4°F5.8°C 82% 3.2 mph WNW5.1 kmh WNW 3.2 mph5.1 kmh 29.65 in1004.1 mb 0.00 in0.0 mm 0.00 in0.0 mm 0.02 in0.5 mm
02:27 AM 39.7°F4.3°C 42.5°F5.8°C 82% 5.0 mph NNW8.0 kmh NNW 5.1 mph8.2 kmh 29.65 in1004.1 mb 0.00 in0.0 mm 0.00 in0.0 mm 0.02 in0.5 mm
02:30 AM 39.2°F4.0°C 42.4°F5.8°C 82% 1.6 mph WSW2.6 kmh WSW 1.6 mph2.6 kmh 29.65 in1004.1 mb 0.00 in0.0 mm 0.00 in0.0 mm 0.02 in0.5 mm
02:33 AM 39.2°F4.0°C 42.1°F5.6°C 82% 2.8 mph NW4.5 kmh NW 2.8 mph4.5 kmh 29.65 in1004.1 mb 0.00 in0.0 mm 0.00 in0.0 mm 0.02 in0.5 mm
02:36 AM 39.2°F4.0°C 41.8°F5.4°C 81% 4.9 mph NNW7.9 kmh NNW 4.9 mph7.9 kmh 29.65 in1004.1 mb 0.00 in0.0 mm 0.00 in0.0 mm 0.02 in0.5 mm
02:39 AM 39.1°F3.9°C 42.0°F5.6°C 81% 1.6 mph NNW2.6 kmh NNW 1.6 mph2.6 kmh 29.65 in1004.1 mb 0.00 in0.0 mm 0.00 in0.0 mm 0.02 in0.5 mm
02:42 AM 39.2°F4.0°C 41.8°F5.4°C 81% Calm Calm -- 29.65 in1004.1 mb 0.00 in0.0 mm 0.00 in0.0 mm 0.02 in0.5 mm
02:45 AM 38.8°F3.8°C 41.9°F5.5°C 81% 2.4 mph WNW3.9 kmh WNW 2.4 mph3.9 kmh 29.65 in1004.1 mb 0.00 in0.0 mm 0.00 in0.0 mm 0.02 in0.5 mm
02:48 AM 38.8°F3.8°C 41.8°F5.4°C 81% Calm Calm -- 29.65 in1004.1 mb 0.00 in0.0 mm 0.00 in0.0 mm 0.02 in0.5 mm
02:51 AM 38.8°F3.8°C 41.8°F5.4°C 82% 6.5 mph W10.5 kmh W 6.5 mph10.5 kmh 29.65 in1004.1 mb 0.00 in0.0 mm 0.00 in0.0 mm 0.02 in0.5 mm
02:54 AM 39.0°F3.9°C 41.7°F5.4°C 82% 4.0 mph WSW6.4 kmh WSW 4.1 mph6.6 kmh 29.65 in1004.1 mb 0.00 in0.0 mm 0.00 in0.0 mm 0.02 in0.5 mm
02:57 AM 39.1°F3.9°C 41.8°F5.4°C 82% 2.8 mph WNW4.5 kmh WNW 2.8 mph4.5 kmh 29.65 in1004.1 mb 0.00 in0.0 mm 0.00 in0.0 mm 0.02 in0.5 mm
03:00 AM 39.0°F3.9°C 41.6°F5.3°C 82% 0.4 mph WNW0.6 kmh WNW 0.4 mph0.6 kmh 29.66 in1004.4 mb 0.00 in0.0 mm 0.00 in0.0 mm 0.02 in0.5 mm
03:03 AM 39.2°F4.0°C 41.7°F5.4°C 82% 3.6 mph NNW5.8 kmh NNW 3.6 mph5.8 kmh 29.66 in1004.4 mb 0.00 in0.0 mm 0.00 in0.0 mm 0.02 in0.5 mm
03:06 AM 39.0°F3.9°C 41.8°F5.4°C 82% 4.0 mph W6.4 kmh W 4.1 mph6.6 kmh 29.66 in1004.4 mb 0.00 in0.0 mm 0.00 in0.0 mm 0.02 in0.5 mm
03:09 AM 39.1°F3.9°C 41.9°F5.5°C 83% 4.4 mph NNW7.1 kmh NNW 4.4 mph7.1 kmh 29.66 in1004.4 mb 0.00 in0.0 mm 0.00 in0.0 mm 0.02 in0.5 mm
03:12 AM 39.1°F3.9°C 41.8°F5.4°C 83% 2.0 mph W3.2 kmh W 2.0 mph3.2 kmh 29.65 in1004.1 mb 0.00 in0.0 mm 0.00 in0.0 mm 0.02 in0.5 mm
03:15 AM 39.0°F3.9°C 41.7°F5.4°C 82% 2.8 mph NW4.5 kmh NW 2.8 mph4.5 kmh 29.66 in1004.4 mb 0.00 in0.0 mm 0.00 in0.0 mm 0.02 in0.5 mm
03:18 AM 39.0°F3.9°C 41.9°F5.5°C 82% 4.9 mph W7.9 kmh W 4.9 mph7.9 kmh 29.66 in1004.4 mb 0.00 in0.0 mm 0.00 in0.0 mm 0.02 in0.5 mm
03:21 AM 39.1°F3.9°C 42.0°F5.6°C 83% 3.4 mph WSW5.5 kmh WSW 3.7 mph6.0 kmh 29.66 in1004.4 mb 0.00 in0.0 mm 0.00 in0.0 mm 0.02 in0.5 mm
03:24 AM 39.2°F4.0°C 41.9°F5.5°C 83% 2.8 mph NNW4.5 kmh NNW 2.8 mph4.5 kmh 29.67 in1004.7 mb 0.00 in0.0 mm 0.00 in0.0 mm 0.02 in0.5 mm
03:27 AM 38.9°F3.8°C 41.7°F5.4°C 83% 2.0 mph NW3.2 kmh NW 2.0 mph3.2 kmh 29.67 in1004.7 mb 0.00 in0.0 mm 0.00 in0.0 mm 0.02 in0.5 mm
03:30 AM 38.5°F3.6°C 41.6°F5.3°C 82% 4.4 mph NW7.1 kmh NW 4.5 mph7.2 kmh 29.67 in1004.7 mb 0.00 in0.0 mm 0.00 in0.0 mm 0.02 in0.5 mm
03:36 AM 38.2°F3.4°C 41.2°F5.1°C 82% 4.8 mph NNW7.7 kmh NNW 4.9 mph7.9 kmh 29.67 in1004.7 mb 0.00 in0.0 mm 0.00 in0.0 mm 0.02 in0.5 mm
03:39 AM 38.2°F3.4°C 41.1°F5.1°C 81% 6.5 mph NW10.5 kmh NW 6.5 mph10.5 kmh 29.67 in1004.7 mb 0.00 in0.0 mm 0.00 in0.0 mm 0.02 in0.5 mm
03:42 AM 38.3°F3.5°C 41.0°F5.0°C 82% 4.0 mph NNW6.4 kmh NNW 4.1 mph6.6 kmh 29.68 in1005.1 mb 0.00 in0.0 mm 0.00 in0.0 mm 0.02 in0.5 mm
03:45 AM 38.5°F3.6°C 41.1°F5.1°C 83% 6.2 mph WNW10.0 kmh WNW 6.3 mph10.1 kmh 29.68 in1005.1 mb 0.00 in0.0 mm 0.00 in0.0 mm 0.02 in0.5 mm
03:48 AM 38.5°F3.6°C 41.2°F5.1°C 82% 4.0 mph NW6.4 kmh NW 4.1 mph6.6 kmh 29.68 in1005.1 mb 0.00 in0.0 mm 0.00 in0.0 mm 0.02 in0.5 mm
03:51 AM 38.5°F3.6°C 41.2°F5.1°C 82% 4.9 mph NNW7.9 kmh NNW 4.9 mph7.9 kmh 29.68 in1005.1 mb 0.00 in0.0 mm 0.00 in0.0 mm 0.02 in0.5 mm
03:54 AM 38.6°F3.7°C 41.1°F5.1°C 82% 2.3 mph WNW3.7 kmh WNW 2.5 mph4.0 kmh 29.68 in1005.1 mb 0.00 in0.0 mm 0.00 in0.0 mm 0.02 in0.5 mm
03:57 AM 38.6°F3.7°C 41.0°F5.0°C 82% 1.6 mph WNW2.6 kmh WNW 1.6 mph2.6 kmh 29.68 in1005.1 mb 0.00 in0.0 mm 0.00 in0.0 mm 0.02 in0.5 mm
04:00 AM 38.8°F3.8°C 40.9°F4.9°C 82% 7.1 mph WNW11.4 kmh WNW 7.2 mph11.6 kmh 29.68 in1005.1 mb 0.00 in0.0 mm 0.00 in0.0 mm 0.02 in0.5 mm
04:03 AM 38.6°F3.7°C 41.2°F5.1°C 83% 4.0 mph NW6.4 kmh NW 4.0 mph6.4 kmh 29.68 in1005.1 mb 0.00 in0.0 mm 0.00 in0.0 mm 0.02 in0.5 mm
04:06 AM 38.6°F3.7°C 41.1°F5.1°C 82% 4.0 mph 6.4 kmh 4.0 mph6.4 kmh 29.68 in1005.1 mb 0.00 in0.0 mm 0.00 in0.0 mm 0.02 in0.5 mm
04:09 AM 38.9°F3.8°C 40.9°F4.9°C 83% 5.7 mph NW9.2 kmh NW 5.7 mph9.2 kmh 29.68 in1005.1 mb 0.00 in0.0 mm 0.00 in0.0 mm 0.02 in0.5 mm
04:12 AM 39.0°F3.9°C 41.3°F5.2°C 83% 6.8 mph NW10.9 kmh NW 6.8 mph10.9 kmh 29.68 in1005.1 mb 0.00 in0.0 mm 0.00 in0.0 mm 0.02 in0.5 mm
04:15 AM 39.0°F3.9°C 41.1°F5.1°C 83% 4.0 mph NNW6.4 kmh NNW 4.1 mph6.6 kmh 29.68 in1005.1 mb 0.00 in0.0 mm 0.00 in0.0 mm 0.02 in0.5 mm
04:18 AM 39.1°F3.9°C 40.7°F4.8°C 81% 2.0 mph NW3.2 kmh NW 2.0 mph3.2 kmh 29.68 in1005.1 mb 0.00 in0.0 mm 0.00 in0.0 mm 0.02 in0.5 mm
04:21 AM 39.1°F3.9°C 41.1°F5.1°C 83% 0.8 mph W1.3 kmh W 0.8 mph1.3 kmh 29.68 in1005.1 mb 0.00 in0.0 mm 0.00 in0.0 mm 0.02 in0.5 mm
04:24 AM 39.1°F3.9°C 41.3°F5.2°C 83% 1.6 mph WNW2.6 kmh WNW 1.6 mph2.6 kmh 29.69 in1005.4 mb 0.00 in0.0 mm 0.00 in0.0 mm 0.02 in0.5 mm
04:27 AM 39.1°F3.9°C 41.0°F5.0°C 82% 4.0 mph NNW6.4 kmh NNW 4.1 mph6.6 kmh 29.68 in1005.1 mb 0.00 in0.0 mm 0.00 in0.0 mm 0.02 in0.5 mm
04:30 AM 39.0°F3.9°C 41.1°F5.1°C 82% 3.6 mph W5.8 kmh W 3.7 mph6.0 kmh 29.68 in1005.1 mb 0.00 in0.0 mm 0.00 in0.0 mm 0.02 in0.5 mm
04:33 AM 39.0°F3.9°C 41.3°F5.2°C 83% 2.4 mph NW3.9 kmh NW 2.4 mph3.9 kmh 29.68 in1005.1 mb 0.00 in0.0 mm 0.00 in0.0 mm 0.02 in0.5 mm
04:36 AM 39.1°F3.9°C 41.1°F5.1°C 82% 3.2 mph W5.1 kmh W 3.3 mph5.3 kmh 29.68 in1005.1 mb 0.00 in0.0 mm 0.00 in0.0 mm 0.02 in0.5 mm
04:39 AM 39.0°F3.9°C 41.0°F5.0°C 83% Calm Calm -- 29.68 in1005.1 mb 0.00 in0.0 mm 0.00 in0.0 mm 0.02 in0.5 mm
04:42 AM 38.9°F3.8°C 41.4°F5.2°C 83% 0.8 mph WSW1.3 kmh WSW 0.8 mph1.3 kmh 29.68 in1005.1 mb 0.00 in0.0 mm 0.00 in0.0 mm 0.02 in0.5 mm
04:45 AM 39.0°F3.9°C 41.3°F5.2°C 83% 1.2 mph NW1.9 kmh NW 1.2 mph1.9 kmh 29.68 in1005.1 mb 0.00 in0.0 mm 0.00 in0.0 mm 0.02 in0.5 mm
04:48 AM 39.1°F3.9°C 41.3°F5.2°C 83% 6.1 mph NNW9.8 kmh NNW 6.1 mph9.8 kmh 29.68 in1005.1 mb 0.00 in0.0 mm 0.00 in0.0 mm 0.02 in0.5 mm
04:51 AM 39.3°F4.1°C 41.4°F5.2°C 83% 4.4 mph NNW7.1 kmh NNW 4.5 mph7.2 kmh 29.68 in1005.1 mb 0.00 in0.0 mm 0.00 in0.0 mm 0.02 in0.5 mm
04:54 AM 39.3°F4.1°C 41.5°F5.3°C 84% 4.0 mph W6.4 kmh W 4.1 mph6.6 kmh 29.68 in1005.1 mb 0.00 in0.0 mm 0.00 in0.0 mm 0.02 in0.5 mm
04:57 AM 39.3°F4.1°C 41.6°F5.3°C 84% 3.2 mph W5.1 kmh W 3.3 mph5.3 kmh 29.68 in1005.1 mb 0.00 in0.0 mm 0.00 in0.0 mm 0.02 in0.5 mm
05:00 AM 39.2°F4.0°C 41.6°F5.3°C 84% 3.2 mph NNE5.1 kmh NNE 3.3 mph5.3 kmh 29.68 in1005.1 mb 0.00 in0.0 mm 0.00 in0.0 mm 0.02 in0.5 mm
05:03 AM 39.2°F4.0°C 41.7°F5.4°C 85% 2.8 mph NW4.5 kmh NW 2.8 mph4.5 kmh 29.68 in1005.1 mb 0.00 in0.0 mm 0.00 in0.0 mm 0.02 in0.5 mm
05:06 AM 39.1°F3.9°C 41.6°F5.3°C 84% 1.2 mph W1.9 kmh W 1.2 mph1.9 kmh 29.68 in1005.1 mb 0.00 in0.0 mm 0.00 in0.0 mm 0.02 in0.5 mm
05:09 AM 39.1°F3.9°C 41.6°F5.3°C 84% 3.2 mph NNW5.1 kmh NNW 3.3 mph5.3 kmh 29.68 in1005.1 mb 0.00 in0.0 mm 0.00 in0.0 mm 0.02 in0.5 mm
05:12 AM 39.3°F4.1°C 41.7°F5.4°C 84% 6.0 mph WNW9.7 kmh WNW 6.1 mph9.8 kmh 29.68 in1005.1 mb 0.00 in0.0 mm 0.00 in0.0 mm 0.02 in0.5 mm
05:15 AM 39.3°F4.1°C 41.8°F5.4°C 85% 9.1 mph W14.6 kmh W 9.1 mph14.6 kmh 29.68 in1005.1 mb 0.00 in0.0 mm 0.00 in0.0 mm 0.02 in0.5 mm
05:18 AM 39.4°F4.1°C 41.7°F5.4°C 85% 4.0 mph NW6.4 kmh NW 4.1 mph6.6 kmh 29.68 in1005.1 mb 0.00 in0.0 mm 0.00 in0.0 mm 0.02 in0.5 mm
05:21 AM 39.5°F4.2°C 41.6°F5.3°C 84% 6.9 mph W11.1 kmh W 7.0 mph11.3 kmh 29.68 in1005.1 mb 0.00 in0.0 mm 0.00 in0.0 mm 0.02 in0.5 mm
05:24 AM 39.4°F4.1°C 41.7°F5.4°C 85% 5.7 mph WNW9.2 kmh WNW 5.7 mph9.2 kmh 29.68 in1005.1 mb 0.00 in0.0 mm 0.00 in0.0 mm 0.02 in0.5 mm
05:27 AM 39.4°F4.1°C 41.6°F5.3°C 85% 10.3 mph W16.6 kmh W 10.4 mph16.7 kmh 29.69 in1005.4 mb 0.00 in0.0 mm 0.00 in0.0 mm 0.02 in0.5 mm
05:30 AM 39.3°F4.1°C 41.8°F5.4°C 85% 3.2 mph WNW5.1 kmh WNW 3.2 mph5.1 kmh 29.70 in1005.8 mb 0.00 in0.0 mm 0.00 in0.0 mm 0.02 in0.5 mm
05:33 AM 39.4°F4.1°C 41.8°F5.4°C 85% 5.6 mph WSW9.0 kmh WSW 5.6 mph9.0 kmh 29.69 in1005.4 mb 0.00 in0.0 mm 0.00 in0.0 mm 0.02 in0.5 mm
05:36 AM 39.3°F4.1°C 41.8°F5.4°C 85% 6.4 mph W10.3 kmh W 6.5 mph10.5 kmh 29.70 in1005.8 mb 0.00 in0.0 mm 0.00 in0.0 mm 0.02 in0.5 mm
05:39 AM 39.3°F4.1°C 41.8°F5.4°C 85% 4.4 mph W7.1 kmh W 4.5 mph7.2 kmh 29.70 in1005.8 mb 0.00 in0.0 mm 0.00 in0.0 mm 0.02 in0.5 mm
05:45 AM 39.2°F4.0°C 41.8°F5.4°C 85% 3.6 mph NNW5.8 kmh NNW 3.7 mph6.0 kmh 29.70 in1005.8 mb 0.00 in0.0 mm 0.00 in0.0 mm 0.02 in0.5 mm
05:48 AM 39.3°F4.1°C 41.9°F5.5°C 85% 6.0 mph W9.7 kmh W 6.0 mph9.7 kmh 29.70 in1005.8 mb 0.00 in0.0 mm 0.00 in0.0 mm 0.02 in0.5 mm
05:51 AM 39.2°F4.0°C 41.7°F5.4°C 85% 2.8 mph WNW4.5 kmh WNW 2.8 mph4.5 kmh 29.70 in1005.8 mb 0.00 in0.0 mm 0.00 in0.0 mm 0.02 in0.5 mm
05:54 AM 39.3°F4.1°C 41.8°F5.4°C 85% 5.4 mph WNW8.7 kmh WNW 5.4 mph8.7 kmh 29.70 in1005.8 mb 0.00 in0.0 mm 0.00 in0.0 mm 0.02 in0.5 mm
05:57 AM 39.3°F4.1°C 41.4°F5.2°C 84% 8.9 mph W14.3 kmh W 8.9 mph14.3 kmh 29.70 in1005.8 mb 0.00 in0.0 mm 0.00 in0.0 mm 0.02 in0.5 mm
06:00 AM 39.2°F4.0°C 41.7°F5.4°C 85% 5.2 mph NNW8.4 kmh NNW 5.2 mph8.4 kmh 29.70 in1005.8 mb 0.00 in0.0 mm 0.00 in0.0 mm 0.02 in0.5 mm
06:03 AM 39.2°F4.0°C 41.7°F5.4°C 85% 7.7 mph NW12.4 kmh NW 7.7 mph12.4 kmh 29.70 in1005.8 mb 0.00 in0.0 mm 0.00 in0.0 mm 0.02 in0.5 mm
06:06 AM 39.1°F3.9°C 41.4°F5.2°C 85% 3.6 mph WNW5.8 kmh WNW 3.7 mph6.0 kmh 29.71 in1006.1 mb 0.00 in0.0 mm 0.00 in0.0 mm 0.02 in0.5 mm
06:09 AM 39.1°F3.9°C 41.6°F5.3°C 85% 6.1 mph W9.8 kmh W 6.1 mph9.8 kmh 29.70 in1005.8 mb 0.00 in0.0 mm 0.00 in0.0 mm 0.02 in0.5 mm
06:12 AM 39.1°F3.9°C 41.6°F5.3°C 85% 6.9 mph W11.1 kmh W 6.9 mph11.1 kmh 29.70 in1005.8 mb 0.00 in0.0 mm 0.00 in0.0 mm 0.02 in0.5 mm
06:15 AM 39.0°F3.9°C 41.4°F5.2°C 85% 4.8 mph NNW7.7 kmh NNW 4.8 mph7.7 kmh 29.70 in1005.8 mb 0.00 in0.0 mm 0.00 in0.0 mm 0.02 in0.5 mm
06:18 AM 38.9°F3.8°C 41.3°F5.2°C 84% 4.4 mph W7.1 kmh W 4.5 mph7.2 kmh 29.71 in1006.1 mb 0.00 in0.0 mm 0.00 in0.0 mm 0.02 in0.5 mm
06:21 AM 38.9°F3.8°C 41.1°F5.1°C 84% 0.8 mph SW1.3 kmh SW 0.8 mph1.3 kmh 29.71 in1006.1 mb 0.00 in0.0 mm 0.00 in0.0 mm 0.02 in0.5 mm
06:24 AM 38.6°F3.7°C 41.5°F5.3°C 85% 3.6 mph NW5.8 kmh NW 3.7 mph6.0 kmh 29.71 in1006.1 mb 0.00 in0.0 mm 0.00 in0.0 mm 0.02 in0.5 mm
06:27 AM 38.6°F3.7°C 41.6°F5.3°C 85% 4.0 mph SW6.4 kmh SW 4.1 mph6.6 kmh 29.70 in1005.8 mb 0.00 in0.0 mm 0.00 in0.0 mm 0.02 in0.5 mm
06:30 AM 38.8°F3.8°C 41.5°F5.3°C 85% 3.6 mph W5.8 kmh W 3.6 mph5.8 kmh 29.71 in1006.1 mb 0.00 in0.0 mm 0.00 in0.0 mm 0.02 in0.5 mm
06:33 AM 38.9°F3.8°C 41.1°F5.1°C 84% 2.8 mph W4.5 kmh W 2.9 mph4.7 kmh 29.70 in1005.8 mb 0.00 in0.0 mm 0.00 in0.0 mm 0.02 in0.5 mm
06:36 AM 38.6°F3.7°C 41.4°F5.2°C 85% 3.1 mph NNW5.0 kmh NNW 3.3 mph5.3 kmh 29.71 in1006.1 mb 0.00 in0.0 mm 0.00 in0.0 mm 0.02 in0.5 mm
06:39 AM 38.8°F3.8°C 41.5°F5.3°C 85% 2.4 mph W3.9 kmh W 2.4 mph3.9 kmh 29.71 in1006.1 mb 0.00 in0.0 mm 0.00 in0.0 mm 0.02 in0.5 mm
06:42 AM 38.8°F3.8°C 41.6°F5.3°C 86% 4.4 mph SW7.1 kmh SW 4.4 mph7.1 kmh 29.71 in1006.1 mb 0.00 in0.0 mm 0.00 in0.0 mm 0.02 in0.5 mm
06:45 AM 38.8°F3.8°C 41.5°F5.3°C 85% 4.8 mph W7.7 kmh W 4.8 mph7.7 kmh 29.70 in1005.8 mb 0.00 in0.0 mm 0.00 in0.0 mm 0.02 in0.5 mm
06:48 AM 38.8°F3.8°C 41.8°F5.4°C 85% 4.4 mph NNW7.1 kmh NNW 4.5 mph7.2 kmh 29.70 in1005.8 mb 0.00 in0.0 mm 0.00 in0.0 mm 0.02 in0.5 mm
06:51 AM 38.6°F3.7°C 41.7°F5.4°C 86% 2.0 mph NW3.2 kmh NW 2.0 mph3.2 kmh 29.70 in1005.8 mb 0.00 in0.0 mm 0.00 in0.0 mm 0.02 in0.5 mm
06:54 AM 38.8°F3.8°C 41.6°F5.3°C 86% 5.2 mph NNW8.4 kmh NNW 5.3 mph8.5 kmh 29.70 in1005.8 mb 0.00 in0.0 mm 0.00 in0.0 mm 0.02 in0.5 mm
06:57 AM 38.9°F3.8°C 41.6°F5.3°C 86% 4.4 mph NNW7.1 kmh NNW 4.4 mph7.1 kmh 29.70 in1005.8 mb 0.00 in0.0 mm 0.00 in0.0 mm 0.02 in0.5 mm
07:00 AM 39.0°F3.9°C 41.7°F5.4°C 86% 5.2 mph SW8.4 kmh SW 5.2 mph8.4 kmh 29.71 in1006.1 mb 0.00 in0.0 mm 0.00 in0.0 mm 0.02 in0.5 mm
07:03 AM 39.1°F3.9°C 41.6°F5.3°C 86% 4.0 mph WNW6.4 kmh WNW 4.1 mph6.6 kmh 29.70 in1005.8 mb 0.00 in0.0 mm 0.00 in0.0 mm 0.02 in0.5 mm
07:06 AM 39.1°F3.9°C 41.9°F5.5°C 86% 5.2 mph WSW8.4 kmh WSW 5.3 mph8.5 kmh 29.70 in1005.8 mb 0.00 in0.0 mm 0.00 in0.0 mm 0.02 in0.5 mm
07:09 AM 39.1°F3.9°C 41.8°F5.4°C 86% 4.4 mph WSW7.1 kmh WSW 4.4 mph7.1 kmh 29.70 in1005.8 mb 0.00 in0.0 mm 0.00 in0.0 mm 0.02 in0.5 mm
07:12 AM 39.1°F3.9°C 41.3°F5.2°C 85% 10.3 mph W16.6 kmh W 10.3 mph16.6 kmh 29.70 in1005.8 mb 0.00 in0.0 mm 0.00 in0.0 mm 0.02 in0.5 mm
07:15 AM 39.1°F3.9°C 41.4°F5.2°C 86% 6.0 mph NW9.7 kmh NW 6.0 mph9.7 kmh 29.70 in1005.8 mb 0.00 in0.0 mm 0.00 in0.0 mm 0.02 in0.5 mm
07:18 AM 39.2°F4.0°C 41.7°F5.4°C 86% 5.9 mph W9.5 kmh W 6.0 mph9.7 kmh 29.70 in1005.8 mb 0.00 in0.0 mm 0.00 in0.0 mm 0.02 in0.5 mm
07:21 AM 39.2°F4.0°C 41.8°F5.4°C 86% 4.4 mph NNW7.1 kmh NNW 4.5 mph7.2 kmh 29.70 in1005.8 mb 0.00 in0.0 mm 0.00 in0.0 mm 0.02 in0.5 mm
07:24 AM 39.1°F3.9°C 41.6°F5.3°C 86% 5.7 mph WNW9.2 kmh WNW 5.7 mph9.2 kmh 29.70 in1005.8 mb 0.00 in0.0 mm 0.00 in0.0 mm 0.02 in0.5 mm
07:27 AM 39.2°F4.0°C 41.9°F5.5°C 86% 4.8 mph NNW7.7 kmh NNW 4.9 mph7.9 kmh 29.70 in1005.8 mb 0.00 in0.0 mm 0.00 in0.0 mm 0.02 in0.5 mm
07:30 AM 39.2°F4.0°C 41.7°F5.4°C 86% 5.1 mph NNW8.2 kmh NNW 5.2 mph8.4 kmh 29.70 in1005.8 mb 0.00 in0.0 mm 0.00 in0.0 mm 0.02 in0.5 mm
07:33 AM 39.2°F4.0°C 41.5°F5.3°C 85% 4.8 mph W7.7 kmh W 4.8 mph7.7 kmh 29.70 in1005.8 mb 0.00 in0.0 mm 0.00 in0.0 mm 0.02 in0.5 mm
07:36 AM 39.2°F4.0°C 42.0°F5.6°C 86% 5.6 mph WNW9.0 kmh WNW 5.6 mph9.0 kmh 29.70 in1005.8 mb 0.00 in0.0 mm 0.00 in0.0 mm 0.02 in0.5 mm
07:39 AM 39.1°F3.9°C 41.7°F5.4°C 86% 3.2 mph WSW5.1 kmh WSW 3.3 mph5.3 kmh 29.70 in1005.8 mb 0.00 in0.0 mm 0.00 in0.0 mm 0.02 in0.5 mm
07:42 AM 39.1°F3.9°C 41.8°F5.4°C 86% 4.4 mph W7.1 kmh W 4.5 mph7.2 kmh 29.70 in1005.8 mb 0.00 in0.0 mm 0.00 in0.0 mm 0.02 in0.5 mm
07:45 AM 39.1°F3.9°C 41.6°F5.3°C 86% 3.6 mph NNW5.8 kmh NNW 3.6 mph5.8 kmh 29.70 in1005.8 mb 0.00 in0.0 mm 0.00 in0.0 mm 0.02 in0.5 mm
07:51 AM 39.2°F4.0°C 41.8°F5.4°C 86% 4.8 mph SW7.7 kmh SW 4.9 mph7.9 kmh 29.70 in1005.8 mb 0.00 in0.0 mm 0.00 in0.0 mm 0.02 in0.5 mm
07:54 AM 39.2°F4.0°C 41.8°F5.4°C 86% 1.9 mph WNW3.1 kmh WNW 2.0 mph3.2 kmh 29.70 in1005.8 mb 0.00 in0.0 mm 0.00 in0.0 mm 0.02 in0.5 mm
07:57 AM 39.2°F4.0°C 41.8°F5.4°C 86% 3.1 mph WNW5.0 kmh WNW 3.2 mph5.1 kmh 29.71 in1006.1 mb 0.00 in0.0 mm 0.00 in0.0 mm 0.02 in0.5 mm
08:00 AM 39.2°F4.0°C 41.8°F5.4°C 85% 2.0 mph NNW3.2 kmh NNW 2.0 mph3.2 kmh 29.70 in1005.8 mb 0.00 in0.0 mm 0.00 in0.0 mm 0.02 in0.5 mm
08:03 AM 39.2°F4.0°C 41.7°F5.4°C 86% 6.9 mph WNW11.1 kmh WNW 6.9 mph11.1 kmh 29.71 in1006.1 mb 0.00 in0.0 mm 0.00 in0.0 mm 0.02 in0.5 mm
08:06 AM 39.2°F4.0°C 41.9°F5.5°C 86% 3.6 mph NNW5.8 kmh NNW 3.7 mph6.0 kmh 29.71 in1006.1 mb 0.00 in0.0 mm 0.00 in0.0 mm 0.02 in0.5 mm
08:09 AM 39.2°F4.0°C 41.6°F5.3°C 85% 4.8 mph NNW7.7 kmh NNW 4.8 mph7.7 kmh 29.71 in1006.1 mb 0.00 in0.0 mm 0.00 in0.0 mm 0.02 in0.5 mm
08:12 AM 39.2°F4.0°C 41.8°F5.4°C 86% 4.0 mph W6.4 kmh W 4.1 mph6.6 kmh 29.70 in1005.8 mb 0.00 in0.0 mm 0.00 in0.0 mm 0.02 in0.5 mm
08:15 AM 39.3°F4.1°C 41.8°F5.4°C 86% 6.5 mph NNW10.5 kmh NNW 6.5 mph10.5 kmh 29.71 in1006.1 mb 0.00 in0.0 mm 0.00 in0.0 mm 0.02 in0.5 mm
08:18 AM 39.4°F4.1°C 41.6°F5.3°C 85% 7.1 mph W11.4 kmh W 7.2 mph11.6 kmh 29.70 in1005.8 mb 0.00 in0.0 mm 0.00 in0.0 mm 0.02 in0.5 mm
08:21 AM 39.3°F4.1°C 41.7°F5.4°C 85% 8.7 mph NW14.0 kmh NW 8.8 mph14.2 kmh 29.71 in1006.1 mb 0.00 in0.0 mm 0.00 in0.0 mm 0.02 in0.5 mm
08:24 AM 39.3°F4.1°C 41.9°F5.5°C 86% 7.1 mph W11.4 kmh W 7.2 mph11.6 kmh 29.71 in1006.1 mb 0.00 in0.0 mm 0.00 in0.0 mm 0.02 in0.5 mm
08:27 AM 39.3°F4.1°C 41.7°F5.4°C 86% 8.5 mph W13.7 kmh W 8.6 mph13.8 kmh 29.70 in1005.8 mb 0.00 in0.0 mm 0.00 in0.0 mm 0.02 in0.5 mm
08:30 AM 39.3°F4.1°C 41.8°F5.4°C 86% 9.3 mph SW15.0 kmh SW 9.4 mph15.1 kmh 29.71 in1006.1 mb 0.00 in0.0 mm 0.00 in0.0 mm 0.02 in0.5 mm
08:33 AM 39.3°F4.1°C 42.0°F5.6°C 87% 7.9 mph NW12.7 kmh NW 8.0 mph12.9 kmh 29.71 in1006.1 mb 0.00 in0.0 mm 0.00 in0.0 mm 0.02 in0.5 mm
08:36 AM 39.4°F4.1°C 42.0°F5.6°C 86% 5.6 mph W9.0 kmh W 5.6 mph9.0 kmh 29.70 in1005.8 mb 0.00 in0.0 mm 0.00 in0.0 mm 0.02 in0.5 mm
08:39 AM 39.4°F4.1°C 42.0°F5.6°C 86% 3.6 mph NNW5.8 kmh NNW 3.7 mph6.0 kmh 29.70 in1005.8 mb 0.00 in0.0 mm 0.00 in0.0 mm 0.02 in0.5 mm
08:42 AM 39.3°F4.1°C 42.0°F5.6°C 86% 4.8 mph NNW7.7 kmh NNW 4.8 mph7.7 kmh 29.71 in1006.1 mb 0.00 in0.0 mm 0.00 in0.0 mm 0.02 in0.5 mm
08:45 AM 39.3°F4.1°C 42.0°F5.6°C 86% 8.8 mph W14.2 kmh W 8.8 mph14.2 kmh 29.70 in1005.8 mb 0.00 in0.0 mm 0.00 in0.0 mm 0.02 in0.5 mm
08:48 AM 39.3°F4.1°C 42.1°F5.6°C 87% 9.1 mph W14.6 kmh W 9.2 mph14.8 kmh 29.70 in1005.8 mb 0.00 in0.0 mm 0.00 in0.0 mm 0.02 in0.5 mm
08:51 AM 39.3°F4.1°C 42.1°F5.6°C 87% 11.3 mph W18.2 kmh W 11.3 mph18.2 kmh 29.71 in1006.1 mb 0.00 in0.0 mm 0.00 in0.0 mm 0.02 in0.5 mm
08:54 AM 39.4°F4.1°C 42.0°F5.6°C 86% 5.8 mph NNW9.3 kmh NNW 5.8 mph9.3 kmh 29.70 in1005.8 mb 0.00 in0.0 mm 0.00 in0.0 mm 0.02 in0.5 mm
08:57 AM 39.3°F4.1°C 42.2°F5.7°C 87% 5.2 mph W8.4 kmh W 5.3 mph8.5 kmh 29.70 in1005.8 mb 0.00 in0.0 mm 0.00 in0.0 mm 0.02 in0.5 mm
09:00 AM 39.4°F4.1°C 42.1°F5.6°C 87% 6.3 mph WNW10.1 kmh WNW 6.4 mph10.3 kmh 29.70 in1005.8 mb 0.00 in0.0 mm 0.00 in0.0 mm 0.02 in0.5 mm
09:03 AM 39.5°F4.2°C 42.0°F5.6°C 87% 3.2 mph W5.1 kmh W 3.3 mph5.3 kmh 29.70 in1005.8 mb 0.00 in0.0 mm 0.00 in0.0 mm 0.02 in0.5 mm
09:06 AM 39.5°F4.2°C 42.2°F5.7°C 87% 4.8 mph WNW7.7 kmh WNW 4.8 mph7.7 kmh 29.70 in1005.8 mb 0.00 in0.0 mm 0.00 in0.0 mm 0.02 in0.5 mm
09:09 AM 39.5°F4.2°C 42.2°F5.7°C 87% 10.9 mph NW17.5 kmh NW 11.0 mph17.7 kmh 29.70 in1005.8 mb 0.00 in0.0 mm 0.00 in0.0 mm 0.02 in0.5 mm
09:12 AM 39.5°F4.2°C 42.2°F5.7°C 87% 8.8 mph NNW14.2 kmh NNW 8.8 mph14.2 kmh 29.70 in1005.8 mb 0.00 in0.0 mm 0.00 in0.0 mm 0.02 in0.5 mm
09:15 AM 39.7°F4.3°C 42.2°F5.7°C 87% 6.1 mph W9.8 kmh W 6.1 mph9.8 kmh 29.70 in1005.8 mb 0.00 in0.0 mm 0.00 in0.0 mm 0.02 in0.5 mm
09:18 AM 39.7°F4.3°C 42.0°F5.6°C 86% 4.4 mph WNW7.1 kmh WNW 4.4 mph7.1 kmh 29.70 in1005.8 mb 0.00 in0.0 mm 0.00 in0.0 mm 0.02 in0.5 mm
09:21 AM 39.7°F4.3°C 42.1°F5.6°C 87% 5.2 mph NNW8.4 kmh NNW 5.2 mph8.4 kmh 29.70 in1005.8 mb 0.00 in0.0 mm 0.00 in0.0 mm 0.02 in0.5 mm
09:24 AM 39.8°F4.3°C 42.2°F5.7°C 86% 7.3 mph WSW11.7 kmh WSW 7.3 mph11.7 kmh 29.70 in1005.8 mb 0.00 in0.0 mm 0.00 in0.0 mm 0.02 in0.5 mm
09:27 AM 39.8°F4.3°C 42.1°F5.6°C 86% 1.2 mph W1.9 kmh W 1.2 mph1.9 kmh 29.70 in1005.8 mb 0.00 in0.0 mm 0.00 in0.0 mm 0.02 in0.5 mm
09:33 AM 39.8°F4.3°C 42.3°F5.7°C 86% 3.6 mph NW5.8 kmh NW 3.7 mph6.0 kmh 29.70 in1005.8 mb 0.00 in0.0 mm 0.00 in0.0 mm 0.02 in0.5 mm
09:36 AM 39.9°F4.4°C 42.5°F5.8°C 87% 4.8 mph W7.7 kmh W 4.9 mph7.9 kmh 29.70 in1005.8 mb 0.00 in0.0 mm 0.00 in0.0 mm 0.02 in0.5 mm
09:39 AM 39.8°F4.3°C 42.2°F5.7°C 87% 4.6 mph WSW7.4 kmh WSW 4.9 mph7.9 kmh 29.70 in1005.8 mb 0.00 in0.0 mm 0.00 in0.0 mm 0.02 in0.5 mm
09:42 AM 39.8°F4.3°C 42.4°F5.8°C 87% 12.5 mph WNW20.1 kmh WNW 12.6 mph20.3 kmh 29.70 in1005.8 mb 0.00 in0.0 mm 0.00 in0.0 mm 0.02 in0.5 mm
09:45 AM 39.7°F4.3°C 42.1°F5.6°C 86% 5.7 mph NW9.2 kmh NW 5.7 mph9.2 kmh 29.70 in1005.8 mb 0.00 in0.0 mm 0.00 in0.0 mm 0.02 in0.5 mm
09:48 AM 39.5°F4.2°C 42.4°F5.8°C 87% 4.4 mph W7.1 kmh W 4.4 mph7.1 kmh 29.70 in1005.8 mb 0.00 in0.0 mm 0.00 in0.0 mm 0.02 in0.5 mm
09:51 AM 39.5°F4.2°C 42.3°F5.7°C 87% 5.7 mph WSW9.2 kmh WSW 5.7 mph9.2 kmh 29.70 in1005.8 mb 0.00 in0.0 mm 0.00 in0.0 mm 0.02 in0.5 mm
09:54 AM 39.5°F4.2°C 42.3°F5.7°C 87% 5.7 mph W9.2 kmh W 5.7 mph9.2 kmh 29.69 in1005.4 mb 0.00 in0.0 mm 0.00 in0.0 mm 0.02 in0.5 mm
09:57 AM 39.7°F4.3°C 42.6°F5.9°C 87% 3.2 mph NNW5.1 kmh NNW 3.2 mph5.1 kmh 29.70 in1005.8 mb 0.00 in0.0 mm 0.00 in0.0 mm 0.02 in0.5 mm
10:00 AM 39.8°F4.3°C 42.4°F5.8°C 87% 5.3 mph NNW8.5 kmh NNW 5.3 mph8.5 kmh 29.69 in1005.4 mb 0.00 in0.0 mm 0.00 in0.0 mm 0.02 in0.5 mm
10:03 AM 39.8°F4.3°C 42.5°F5.8°C 87% 11.5 mph W18.5 kmh W 11.5 mph18.5 kmh 29.69 in1005.4 mb 0.00 in0.0 mm 0.00 in0.0 mm 0.02 in0.5 mm
10:06 AM 40.0°F4.4°C 42.5°F5.8°C 88% 2.4 mph WSW3.9 kmh WSW 2.4 mph3.9 kmh 29.69 in1005.4 mb 0.00 in0.0 mm 0.00 in0.0 mm 0.02 in0.5 mm
10:09 AM 40.1°F4.5°C 42.5°F5.8°C 87% 9.3 mph W15.0 kmh W 9.4 mph15.1 kmh 29.69 in1005.4 mb 0.00 in0.0 mm 0.00 in0.0 mm 0.02 in0.5 mm
10:12 AM 40.0°F4.4°C 42.6°F5.9°C 87% 4.4 mph NNW7.1 kmh NNW 4.4 mph7.1 kmh 29.70 in1005.8 mb 0.00 in0.0 mm 0.00 in0.0 mm 0.02 in0.5 mm
10:15 AM 40.0°F4.4°C 42.8°F6.0°C 87% 6.9 mph WSW11.1 kmh WSW 6.9 mph11.1 kmh 29.69 in1005.4 mb 0.00 in0.0 mm 0.00 in0.0 mm 0.02 in0.5 mm
10:18 AM 40.0°F4.4°C 42.5°F5.8°C 87% 6.1 mph W9.8 kmh W 6.1 mph9.8 kmh 29.68 in1005.1 mb 0.00 in0.0 mm 0.00 in0.0 mm 0.02 in0.5 mm
10:21 AM 40.1°F4.5°C 42.8°F6.0°C 87% 2.8 mph NW4.5 kmh NW 2.9 mph4.7 kmh 29.68 in1005.1 mb 0.00 in0.0 mm 0.00 in0.0 mm 0.02 in0.5 mm
10:24 AM 40.1°F4.5°C 42.7°F5.9°C 87% 3.2 mph NW5.1 kmh NW 3.2 mph5.1 kmh 29.68 in1005.1 mb 0.00 in0.0 mm 0.00 in0.0 mm 0.02 in0.5 mm
10:27 AM 40.1°F4.5°C 42.6°F5.9°C 87% 13.3 mph NNW21.4 kmh NNW 13.4 mph21.6 kmh 29.68 in1005.1 mb 0.00 in0.0 mm 0.00 in0.0 mm 0.02 in0.5 mm
10:33 AM 40.2°F4.6°C 42.6°F5.9°C 87% 8.9 mph W14.3 kmh W 9.0 mph14.5 kmh 29.68 in1005.1 mb 0.00 in0.0 mm 0.00 in0.0 mm 0.02 in0.5 mm
10:36 AM 40.0°F4.4°C 42.3°F5.7°C 86% 7.2 mph WSW11.6 kmh WSW 7.3 mph11.7 kmh 29.68 in1005.1 mb 0.00 in0.0 mm 0.00 in0.0 mm 0.04 in1.0 mm
10:39 AM 39.9°F4.4°C 42.4°F5.8°C 87% 3.6 mph NNW5.8 kmh NNW 3.6 mph5.8 kmh 29.68 in1005.1 mb 0.00 in0.0 mm 0.00 in0.0 mm 0.04 in1.0 mm
10:42 AM 39.9°F4.4°C 42.6°F5.9°C 87% 6.3 mph SW10.1 kmh SW 6.4 mph10.3 kmh 29.68 in1005.1 mb 0.00 in0.0 mm 0.00 in0.0 mm 0.04 in1.0 mm
10:45 AM 39.9°F4.4°C 42.7°F5.9°C 87% 3.2 mph NNW5.1 kmh NNW 3.3 mph5.3 kmh 29.68 in1005.1 mb 0.00 in0.0 mm 0.00 in0.0 mm 0.04 in1.0 mm
10:48 AM 39.9°F4.4°C 42.6°F5.9°C 87% 10.5 mph W16.9 kmh W 10.5 mph16.9 kmh 29.68 in1005.1 mb 0.00 in0.0 mm 0.00 in0.0 mm 0.04 in1.0 mm
10:51 AM 40.0°F4.4°C 42.2°F5.7°C 86% 12.4 mph NW20.0 kmh NW 12.4 mph20.0 kmh 29.68 in1005.1 mb 0.00 in0.0 mm 0.00 in0.0 mm 0.04 in1.0 mm
10:54 AM 40.0°F4.4°C 42.7°F5.9°C 87% 9.7 mph W15.6 kmh W 9.8 mph15.8 kmh 29.68 in1005.1 mb 0.00 in0.0 mm 0.00 in0.0 mm 0.04 in1.0 mm
10:57 AM 40.0°F4.4°C 42.5°F5.8°C 87% 11.3 mph W18.2 kmh W 11.4 mph18.3 kmh 29.68 in1005.1 mb 0.00 in0.0 mm 0.00 in0.0 mm 0.04 in1.0 mm
11:00 AM 40.1°F4.5°C 42.8°F6.0°C 87% 8.1 mph NNW13.0 kmh NNW 8.1 mph13.0 kmh 29.68 in1005.1 mb 0.00 in0.0 mm 0.00 in0.0 mm 0.06 in1.5 mm
11:03 AM 40.2°F4.6°C 42.7°F5.9°C 87% 6.4 mph W10.3 kmh W 6.5 mph10.5 kmh 29.68 in1005.1 mb 0.00 in0.0 mm 0.00 in0.0 mm 0.06 in1.5 mm
11:06 AM 40.1°F4.5°C 42.9°F6.1°C 87% 6.5 mph W10.5 kmh W 6.5 mph10.5 kmh 29.67 in1004.7 mb 0.00 in0.0 mm 0.00 in0.0 mm 0.06 in1.5 mm
11:09 AM 40.1°F4.5°C 42.7°F5.9°C 87% 8.9 mph W14.3 kmh W 8.9 mph14.3 kmh 29.67 in1004.7 mb 0.00 in0.0 mm 0.00 in0.0 mm 0.06 in1.5 mm
11:12 AM 40.1°F4.5°C 42.8°F6.0°C 87% 6.5 mph W10.5 kmh W 6.5 mph10.5 kmh 29.67 in1004.7 mb 0.00 in0.0 mm 0.00 in0.0 mm 0.06 in1.5 mm
11:15 AM 40.2°F4.6°C 42.5°F5.8°C 87% 10.5 mph W16.9 kmh W 10.5 mph16.9 kmh 29.67 in1004.7 mb 0.00 in0.0 mm 0.00 in0.0 mm 0.06 in1.5 mm
11:18 AM 40.2°F4.6°C 42.6°F5.9°C 87% 6.5 mph NNW10.5 kmh NNW 6.5 mph10.5 kmh 29.67 in1004.7 mb 0.00 in0.0 mm 0.00 in0.0 mm 0.06 in1.5 mm
11:21 AM 40.1°F4.5°C 42.8°F6.0°C 87% 10.9 mph WSW17.5 kmh WSW 11.0 mph17.7 kmh 29.66 in1004.4 mb 0.00 in0.0 mm 0.00 in0.0 mm 0.06 in1.5 mm
11:24 AM 40.1°F4.5°C 42.9°F6.1°C 87% 7.6 mph W12.2 kmh W 7.6 mph12.2 kmh 29.66 in1004.4 mb 0.00 in0.0 mm 0.00 in0.0 mm 0.06 in1.5 mm
11:27 AM 40.1°F4.5°C 42.7°F5.9°C 87% 8.5 mph WSW13.7 kmh WSW 8.6 mph13.8 kmh 29.67 in1004.7 mb 0.00 in0.0 mm 0.00 in0.0 mm 0.06 in1.5 mm
11:30 AM 40.2°F4.6°C 42.8°F6.0°C 87% 6.1 mph NNW9.8 kmh NNW 6.1 mph9.8 kmh 29.66 in1004.4 mb 0.00 in0.0 mm 0.00 in0.0 mm 0.06 in1.5 mm
11:33 AM 40.0°F4.4°C 42.8°F6.0°C 87% 9.7 mph W15.6 kmh W 9.7 mph15.6 kmh 29.66 in1004.4 mb 0.00 in0.0 mm 0.00 in0.0 mm 0.06 in1.5 mm
11:36 AM 40.1°F4.5°C 42.6°F5.9°C 87% 6.1 mph W9.8 kmh W 6.1 mph9.8 kmh 29.66 in1004.4 mb 0.00 in0.0 mm 0.00 in0.0 mm 0.06 in1.5 mm
11:39 AM 40.0°F4.4°C 42.8°F6.0°C 87% 2.3 mph W3.7 kmh W 2.4 mph3.9 kmh 29.65 in1004.1 mb 0.00 in0.0 mm 0.00 in0.0 mm 0.06 in1.5 mm
11:42 AM 40.0°F4.4°C 42.7°F5.9°C 87% 4.4 mph W7.1 kmh W 4.4 mph7.1 kmh 29.65 in1004.1 mb 0.00 in0.0 mm 0.00 in0.0 mm 0.06 in1.5 mm
11:45 AM 40.0°F4.4°C 42.6°F5.9°C 87% 3.2 mph NNW5.1 kmh NNW 3.2 mph5.1 kmh 29.65 in1004.1 mb 0.00 in0.0 mm 0.00 in0.0 mm 0.06 in1.5 mm
11:48 AM 40.0°F4.4°C 42.6°F5.9°C 87% 8.9 mph W14.3 kmh W 8.9 mph14.3 kmh 29.65 in1004.1 mb 0.00 in0.0 mm 0.00 in0.0 mm 0.06 in1.5 mm
11:51 AM 40.0°F4.4°C 42.7°F5.9°C 87% 5.2 mph WNW8.4 kmh WNW 5.3 mph8.5 kmh 29.65 in1004.1 mb 0.00 in0.0 mm 0.00 in0.0 mm 0.06 in1.5 mm
11:54 AM 39.9°F4.4°C 42.7°F5.9°C 87% 8.3 mph NW13.4 kmh NW 8.4 mph13.5 kmh 29.65 in1004.1 mb 0.00 in0.0 mm 0.00 in0.0 mm 0.06 in1.5 mm
11:57 AM 39.9°F4.4°C 42.8°F6.0°C 87% 5.7 mph NW9.2 kmh NW 5.7 mph9.2 kmh 29.65 in1004.1 mb 0.00 in0.0 mm 0.00 in0.0 mm 0.06 in1.5 mm
12:00 PM 40.0°F4.4°C 42.8°F6.0°C 88% 10.5 mph W16.9 kmh W 10.5 mph16.9 kmh 29.64 in1003.7 mb 0.00 in0.0 mm 0.00 in0.0 mm 0.06 in1.5 mm
12:06 PM 40.0°F4.4°C 42.5°F5.8°C 88% 7.7 mph WNW12.4 kmh WNW 7.7 mph12.4 kmh 29.64 in1003.7 mb 0.00 in0.0 mm 0.00 in0.0 mm 0.06 in1.5 mm
12:09 PM 40.1°F4.5°C 42.4°F5.8°C 87% 6.7 mph W10.8 kmh W 6.8 mph10.9 kmh 29.64 in1003.7 mb 0.00 in0.0 mm 0.00 in0.0 mm 0.06 in1.5 mm
12:12 PM 40.1°F4.5°C 42.8°F6.0°C 88% 8.9 mph NNW14.3 kmh NNW 9.0 mph14.5 kmh 29.64 in1003.7 mb 0.00 in0.0 mm 0.00 in0.0 mm 0.06 in1.5 mm
12:15 PM 39.9°F4.4°C 43.0°F6.1°C 88% 11.1 mph WNW17.9 kmh WNW 11.1 mph17.9 kmh 29.64 in1003.7 mb 0.00 in0.0 mm 0.00 in0.0 mm 0.06 in1.5 mm
12:18 PM 40.0°F4.4°C 43.0°F6.1°C 88% 4.8 mph WNW7.7 kmh WNW 4.9 mph7.9 kmh 29.64 in1003.7 mb 0.00 in0.0 mm 0.00 in0.0 mm 0.06 in1.5 mm
12:21 PM 39.9°F4.4°C 42.9°F6.1°C 88% 11.0 mph W17.7 kmh W 11.3 mph18.2 kmh 29.64 in1003.7 mb 0.00 in0.0 mm 0.00 in0.0 mm 0.06 in1.5 mm
12:24 PM 39.9°F4.4°C 43.0°F6.1°C 88% 4.4 mph WNW7.1 kmh WNW 4.5 mph7.2 kmh 29.64 in1003.7 mb 0.00 in0.0 mm 0.00 in0.0 mm 0.06 in1.5 mm
12:27 PM 39.9°F4.4°C 42.9°F6.1°C 88% 6.4 mph NNW10.3 kmh NNW 6.4 mph10.3 kmh 29.64 in1003.7 mb 0.00 in0.0 mm 0.00 in0.0 mm 0.06 in1.5 mm
12:30 PM 40.0°F4.4°C 42.8°F6.0°C 87% 6.5 mph W10.5 kmh W 6.5 mph10.5 kmh 29.64 in1003.7 mb 0.00 in0.0 mm 0.00 in0.0 mm 0.06 in1.5 mm
12:33 PM 39.9°F4.4°C 43.0°F6.1°C 88% 3.2 mph WNW5.1 kmh WNW 3.3 mph5.3 kmh 29.64 in1003.7 mb 0.00 in0.0 mm 0.00 in0.0 mm 0.06 in1.5 mm
12:36 PM 39.9°F4.4°C 42.7°F5.9°C 88% 8.3 mph W13.4 kmh W 8.4 mph13.5 kmh 29.64 in1003.7 mb 0.00 in0.0 mm 0.00 in0.0 mm 0.06 in1.5 mm
12:39 PM 39.9°F4.4°C 43.1°F6.2°C 88% 9.3 mph NW15.0 kmh NW 9.4 mph15.1 kmh 29.64 in1003.7 mb 0.00 in0.0 mm 0.00 in0.0 mm 0.06 in1.5 mm
12:42 PM 40.0°F4.4°C 43.1°F6.2°C 88% 6.9 mph W11.1 kmh W 7.0 mph11.3 kmh 29.64 in1003.7 mb 0.00 in0.0 mm 0.00 in0.0 mm 0.06 in1.5 mm
12:45 PM 40.0°F4.4°C 43.1°F6.2°C 88% 9.6 mph WSW15.4 kmh WSW 9.6 mph15.4 kmh 29.64 in1003.7 mb 0.00 in0.0 mm 0.00 in0.0 mm 0.08 in2.0 mm
12:48 PM 40.0°F4.4°C 43.3°F6.3°C 88% 4.0 mph NNW6.4 kmh NNW 4.0 mph6.4 kmh 29.64 in1003.7 mb 0.00 in0.0 mm 0.00 in0.0 mm 0.08 in2.0 mm
12:51 PM 40.0°F4.4°C 42.9°F6.1°C 89% 4.9 mph W7.9 kmh W 4.9 mph7.9 kmh 29.64 in1003.7 mb 0.00 in0.0 mm 0.00 in0.0 mm 0.08 in2.0 mm
12:54 PM 40.0°F4.4°C 43.1°F6.2°C 88% 3.6 mph WNW5.8 kmh WNW 3.6 mph5.8 kmh 29.64 in1003.7 mb 0.00 in0.0 mm 0.00 in0.0 mm 0.08 in2.0 mm
12:57 PM 40.1°F4.5°C 43.1°F6.2°C 88% 8.4 mph NNW13.5 kmh NNW 8.5 mph13.7 kmh 29.63 in1003.4 mb 0.00 in0.0 mm 0.00 in0.0 mm 0.08 in2.0 mm
01:00 PM 40.3°F4.6°C 42.7°F5.9°C 88% 9.1 mph NNW14.6 kmh NNW 9.2 mph14.8 kmh 29.63 in1003.4 mb 0.00 in0.0 mm 0.00 in0.0 mm 0.08 in2.0 mm
01:03 PM 40.7°F4.8°C 43.2°F6.2°C 89% 6.5 mph NW10.5 kmh NW 6.5 mph10.5 kmh 29.63 in1003.4 mb 0.00 in0.0 mm 0.00 in0.0 mm 0.08 in2.0 mm
01:06 PM 40.9°F4.9°C 43.5°F6.4°C 89% 10.3 mph NNW16.6 kmh NNW 10.4 mph16.7 kmh 29.63 in1003.4 mb 0.00 in0.0 mm 0.00 in0.0 mm 0.08 in2.0 mm
01:09 PM 40.7°F4.8°C 43.5°F6.4°C 89% 12.1 mph W19.5 kmh W 12.2 mph19.6 kmh 29.64 in1003.7 mb 0.00 in0.0 mm 0.00 in0.0 mm 0.08 in2.0 mm
01:12 PM 40.4°F4.7°C 43.5°F6.4°C 89% 7.7 mph W12.4 kmh W 7.7 mph12.4 kmh 29.64 in1003.7 mb 0.00 in0.0 mm 0.00 in0.0 mm 0.08 in2.0 mm
01:15 PM 40.2°F4.6°C 43.1°F6.2°C 88% 7.8 mph W12.6 kmh W 7.9 mph12.7 kmh 29.64 in1003.7 mb 0.00 in0.0 mm 0.00 in0.0 mm 0.08 in2.0 mm
01:18 PM 40.3°F4.6°C 43.0°F6.1°C 88% 6.0 mph WSW9.7 kmh WSW 6.0 mph9.7 kmh 29.64 in1003.7 mb 0.00 in0.0 mm 0.00 in0.0 mm 0.08 in2.0 mm
01:21 PM 40.2°F4.6°C 43.1°F6.2°C 88% 8.5 mph WNW13.7 kmh WNW 8.6 mph13.8 kmh 29.64 in1003.7 mb 0.00 in0.0 mm 0.00 in0.0 mm 0.08 in2.0 mm
01:24 PM 40.1°F4.5°C 43.2°F6.2°C 89% 5.7 mph W9.2 kmh W 5.7 mph9.2 kmh 29.64 in1003.7 mb 0.00 in0.0 mm 0.00 in0.0 mm 0.08 in2.0 mm
01:27 PM 40.1°F4.5°C 43.1°F6.2°C 88% 7.3 mph NW11.7 kmh NW 7.3 mph11.7 kmh 29.64 in1003.7 mb 0.00 in0.0 mm 0.00 in0.0 mm 0.08 in2.0 mm
01:30 PM 40.1°F4.5°C 43.1°F6.2°C 88% 9.5 mph NNW15.3 kmh NNW 9.5 mph15.3 kmh 29.64 in1003.7 mb 0.00 in0.0 mm 0.00 in0.0 mm 0.08 in2.0 mm
01:33 PM 40.1°F4.5°C 43.2°F6.2°C 88% 8.0 mph W12.9 kmh W 8.1 mph13.0 kmh 29.64 in1003.7 mb 0.00 in0.0 mm 0.00 in0.0 mm 0.08 in2.0 mm
01:36 PM 40.0°F4.4°C 43.3°F6.3°C 88% 4.0 mph WNW6.4 kmh WNW 4.1 mph6.6 kmh 29.64 in1003.7 mb 0.00 in0.0 mm 0.00 in0.0 mm 0.08 in2.0 mm
01:39 PM 39.9°F4.4°C 43.0°F6.1°C 87% 0.8 mph NNW1.3 kmh NNW 0.8 mph1.3 kmh 29.64 in1003.7 mb 0.00 in0.0 mm 0.00 in0.0 mm 0.08 in2.0 mm
01:42 PM 39.9°F4.4°C 43.3°F6.3°C 88% 3.9 mph W6.3 kmh W 3.9 mph6.3 kmh 29.64 in1003.7 mb 0.00 in0.0 mm 0.00 in0.0 mm 0.10 in2.5 mm
01:45 PM 39.9°F4.4°C 43.2°F6.2°C 88% 8.0 mph W12.9 kmh W 8.1 mph13.0 kmh 29.62 in1003.0 mb 0.00 in0.0 mm 0.00 in0.0 mm 0.10 in2.5 mm
01:48 PM 39.9°F4.4°C 43.2°F6.2°C 88% 6.3 mph WSW10.1 kmh WSW 6.3 mph10.1 kmh 29.62 in1003.0 mb 0.00 in0.0 mm 0.00 in0.0 mm 0.10 in2.5 mm
01:51 PM 39.9°F4.4°C 43.0°F6.1°C 88% 3.6 mph WNW5.8 kmh WNW 3.6 mph5.8 kmh 29.62 in1003.0 mb 0.00 in0.0 mm 0.00 in0.0 mm 0.10 in2.5 mm
01:54 PM 40.0°F4.4°C 43.3°F6.3°C 89% 8.1 mph WSW13.0 kmh WSW 8.1 mph13.0 kmh 29.62 in1003.0 mb 0.00 in0.0 mm 0.00 in0.0 mm 0.10 in2.5 mm
01:57 PM 39.9°F4.4°C 43.0°F6.1°C 88% 6.5 mph W10.5 kmh W 6.5 mph10.5 kmh 29.62 in1003.0 mb 0.00 in0.0 mm 0.00 in0.0 mm 0.10 in2.5 mm
02:00 PM 39.9°F4.4°C 43.3°F6.3°C 89% 9.7 mph NW15.6 kmh NW 9.7 mph15.6 kmh 29.62 in1003.0 mb 0.00 in0.0 mm 0.00 in0.0 mm 0.10 in2.5 mm
02:03 PM 40.0°F4.4°C 43.3°F6.3°C 89% 7.2 mph W11.6 kmh W 7.2 mph11.6 kmh 29.62 in1003.0 mb 0.00 in0.0 mm 0.00 in0.0 mm 0.10 in2.5 mm
02:06 PM 40.0°F4.4°C 43.4°F6.3°C 89% 4.8 mph NNW7.7 kmh NNW 4.9 mph7.9 kmh 29.62 in1003.0 mb 0.00 in0.0 mm 0.00 in0.0 mm 0.10 in2.5 mm
02:09 PM 40.1°F4.5°C 43.5°F6.4°C 89% 9.1 mph W14.6 kmh W 9.2 mph14.8 kmh 29.62 in1003.0 mb 0.00 in0.0 mm 0.00 in0.0 mm 0.10 in2.5 mm
02:12 PM 40.0°F4.4°C 43.4°F6.3°C 89% 8.5 mph WNW13.7 kmh WNW 8.6 mph13.8 kmh 29.62 in1003.0 mb 0.00 in0.0 mm 0.00 in0.0 mm 0.10 in2.5 mm
02:15 PM 40.0°F4.4°C 43.4°F6.3°C 89% 6.4 mph W10.3 kmh W 6.4 mph10.3 kmh 29.62 in1003.0 mb 0.00 in0.0 mm 0.00 in0.0 mm 0.10 in2.5 mm
02:18 PM 40.1°F4.5°C 43.1°F6.2°C 89% 6.4 mph NNW10.3 kmh NNW 6.4 mph10.3 kmh 29.62 in1003.0 mb 0.00 in0.0 mm 0.00 in0.0 mm 0.10 in2.5 mm
02:21 PM 40.2°F4.6°C 43.4°F6.3°C 89% 6.8 mph NNW10.9 kmh NNW 6.8 mph10.9 kmh 29.62 in1003.0 mb 0.00 in0.0 mm 0.00 in0.0 mm 0.10 in2.5 mm
02:24 PM 40.2°F4.6°C 43.5°F6.4°C 89% 10.9 mph NW17.5 kmh NW 11.0 mph17.7 kmh 29.62 in1003.0 mb 0.00 in0.0 mm 0.00 in0.0 mm 0.10 in2.5 mm
02:27 PM 40.2°F4.6°C 43.4°F6.3°C 89% 8.5 mph WNW13.7 kmh WNW 8.6 mph13.8 kmh 29.62 in1003.0 mb 0.00 in0.0 mm 0.00 in0.0 mm 0.10 in2.5 mm
02:30 PM 40.2°F4.6°C 43.8°F6.6°C 90% 7.2 mph NNW11.6 kmh NNW 7.3 mph11.7 kmh 29.62 in1003.0 mb 0.00 in0.0 mm 0.00 in0.0 mm 0.10 in2.5 mm
02:33 PM 40.3°F4.6°C 43.4°F6.3°C 89% 7.5 mph NW12.1 kmh NW 7.6 mph12.2 kmh 29.62 in1003.0 mb 0.00 in0.0 mm 0.00 in0.0 mm 0.10 in2.5 mm
02:36 PM 40.4°F4.7°C 43.8°F6.6°C 90% 9.9 mph W15.9 kmh W 10.0 mph16.1 kmh 29.62 in1003.0 mb 0.00 in0.0 mm 0.00 in0.0 mm 0.10 in2.5 mm
02:39 PM 40.4°F4.7°C 43.5°F6.4°C 89% 3.2 mph W5.1 kmh W 3.2 mph5.1 kmh 29.62 in1003.0 mb 0.00 in0.0 mm 0.00 in0.0 mm 0.10 in2.5 mm
02:42 PM 40.6°F4.8°C 43.8°F6.6°C 89% 8.3 mph WNW13.4 kmh WNW 8.4 mph13.5 kmh 29.62 in1003.0 mb 0.00 in0.0 mm 0.00 in0.0 mm 0.10 in2.5 mm
02:45 PM 40.7°F4.8°C 43.5°F6.4°C 89% 4.8 mph NW7.7 kmh NW 4.9 mph7.9 kmh 29.62 in1003.0 mb 0.00 in0.0 mm 0.00 in0.0 mm 0.10 in2.5 mm
02:48 PM 40.7°F4.8°C 43.8°F6.6°C 89% 6.5 mph WNW10.5 kmh WNW 6.5 mph10.5 kmh 29.62 in1003.0 mb 0.00 in0.0 mm 0.00 in0.0 mm 0.10 in2.5 mm
02:51 PM 40.7°F4.8°C 43.7°F6.5°C 89% 5.7 mph 9.2 kmh 5.7 mph9.2 kmh 29.61 in1002.7 mb 0.00 in0.0 mm 0.00 in0.0 mm 0.10 in2.5 mm
02:54 PM 40.7°F4.8°C 44.0°F6.7°C 89% 3.6 mph NNW5.8 kmh NNW 3.6 mph5.8 kmh 29.62 in1003.0 mb 0.00 in0.0 mm 0.00 in0.0 mm 0.10 in2.5 mm
02:57 PM 40.8°F4.9°C 43.6°F6.4°C 89% 4.8 mph NNW7.7 kmh NNW 4.9 mph7.9 kmh 29.61 in1002.7 mb 0.00 in0.0 mm 0.00 in0.0 mm 0.10 in2.5 mm
03:00 PM 40.8°F4.9°C 43.8°F6.6°C 89% 4.4 mph W7.1 kmh W 4.5 mph7.2 kmh 29.62 in1003.0 mb 0.00 in0.0 mm 0.00 in0.0 mm 0.10 in2.5 mm
03:03 PM 40.8°F4.9°C 43.9°F6.6°C 89% 6.0 mph WNW9.7 kmh WNW 6.0 mph9.7 kmh 29.61 in1002.7 mb 0.00 in0.0 mm 0.00 in0.0 mm 0.10 in2.5 mm
03:06 PM 40.8°F4.9°C 43.8°F6.6°C 89% 13.9 mph WNW22.4 kmh WNW 14.0 mph22.5 kmh 29.61 in1002.7 mb 0.00 in0.0 mm 0.00 in0.0 mm 0.10 in2.5 mm
03:09 PM 40.9°F4.9°C 44.1°F6.7°C 89% 5.7 mph WNW9.2 kmh WNW 5.7 mph9.2 kmh 29.62 in1003.0 mb 0.00 in0.0 mm 0.00 in0.0 mm 0.10 in2.5 mm
03:12 PM 40.9°F4.9°C 43.8°F6.6°C 89% 13.8 mph NW22.2 kmh NW 13.9 mph22.4 kmh 29.61 in1002.7 mb 0.00 in0.0 mm 0.00 in0.0 mm 0.10 in2.5 mm
03:15 PM 40.9°F4.9°C 43.8°F6.6°C 89% 4.8 mph NNW7.7 kmh NNW 4.8 mph7.7 kmh 29.61 in1002.7 mb 0.00 in0.0 mm 0.00 in0.0 mm 0.12 in3.0 mm
03:18 PM 40.9°F4.9°C 44.0°F6.7°C 89% 4.0 mph WSW6.4 kmh WSW 4.1 mph6.6 kmh 29.61 in1002.7 mb 0.00 in0.0 mm 0.00 in0.0 mm 0.12 in3.0 mm
03:21 PM 40.9°F4.9°C 43.9°F6.6°C 89% 2.4 mph W3.9 kmh W 2.4 mph3.9 kmh 29.61 in1002.7 mb 0.00 in0.0 mm 0.00 in0.0 mm 0.12 in3.0 mm
03:24 PM 40.9°F4.9°C 44.0°F6.7°C 89% 5.6 mph NW9.0 kmh NW 5.6 mph9.0 kmh 29.62 in1003.0 mb 0.00 in0.0 mm 0.00 in0.0 mm 0.12 in3.0 mm
03:27 PM 40.9°F4.9°C 44.0°F6.7°C 89% 4.8 mph NW7.7 kmh NW 4.8 mph7.7 kmh 29.61 in1002.7 mb 0.00 in0.0 mm 0.00 in0.0 mm 0.12 in3.0 mm
03:30 PM 40.9°F4.9°C 44.0°F6.7°C 89% 2.4 mph WNW3.9 kmh WNW 2.4 mph3.9 kmh 29.61 in1002.7 mb 0.00 in0.0 mm 0.00 in0.0 mm 0.12 in3.0 mm
03:33 PM 41.0°F5.0°C 43.7°F6.5°C 88% 4.8 mph 7.7 kmh 4.9 mph7.9 kmh 29.61 in1002.7 mb 0.00 in0.0 mm 0.00 in0.0 mm 0.12 in3.0 mm
03:36 PM 41.0°F5.0°C 43.6°F6.4°C 88% Calm Calm -- 29.62 in1003.0 mb 0.00 in0.0 mm 0.00 in0.0 mm 0.12 in3.0 mm
03:39 PM 41.0°F5.0°C 43.8°F6.6°C 89% 6.5 mph W10.5 kmh W 6.5 mph10.5 kmh 29.62 in1003.0 mb 0.00 in0.0 mm 0.00 in0.0 mm 0.12 in3.0 mm
03:42 PM 41.0°F5.0°C 43.8°F6.6°C 89% 9.3 mph W15.0 kmh W 9.3 mph15.0 kmh 29.61 in1002.7 mb 0.00 in0.0 mm 0.00 in0.0 mm 0.12 in3.0 mm
03:45 PM 41.0°F5.0°C 43.9°F6.6°C 89% 4.9 mph WNW7.9 kmh WNW 4.9 mph7.9 kmh 29.61 in1002.7 mb 0.00 in0.0 mm 0.00 in0.0 mm 0.12 in3.0 mm
03:48 PM 41.0°F5.0°C 44.1°F6.7°C 89% 4.0 mph NW6.4 kmh NW 4.1 mph6.6 kmh 29.61 in1002.7 mb 0.00 in0.0 mm 0.00 in0.0 mm 0.12 in3.0 mm
03:51 PM 41.0°F5.0°C 43.8°F6.6°C 88% 4.0 mph NNW6.4 kmh NNW 4.1 mph6.6 kmh 29.61 in1002.7 mb 0.00 in0.0 mm 0.00 in0.0 mm 0.12 in3.0 mm
03:54 PM 41.0°F5.0°C 44.2°F6.8°C 89% 4.4 mph W7.1 kmh W 4.5 mph7.2 kmh 29.61 in1002.7 mb 0.00 in0.0 mm 0.00 in0.0 mm 0.12 in3.0 mm
03:57 PM 41.1°F5.1°C 43.7°F6.5°C 88% 9.5 mph NW15.3 kmh NW 9.6 mph15.4 kmh 29.61 in1002.7 mb 0.00 in0.0 mm 0.00 in0.0 mm 0.12 in3.0 mm
04:00 PM 41.1°F5.1°C 44.0°F6.7°C 89% 6.8 mph NW10.9 kmh NW 6.8 mph10.9 kmh 29.62 in1003.0 mb 0.00 in0.0 mm 0.00 in0.0 mm 0.12 in3.0 mm
04:03 PM 41.1°F5.1°C 44.3°F6.8°C 90% 6.8 mph WNW10.9 kmh WNW 6.9 mph11.1 kmh 29.62 in1003.0 mb 0.00 in0.0 mm 0.00 in0.0 mm 0.12 in3.0 mm
04:06 PM 41.1°F5.1°C 44.2°F6.8°C 89% 2.4 mph NNW3.9 kmh NNW 2.4 mph3.9 kmh 29.62 in1003.0 mb 0.00 in0.0 mm 0.00 in0.0 mm 0.12 in3.0 mm
04:09 PM 41.2°F5.1°C 44.1°F6.7°C 89% 6.1 mph WNW9.8 kmh WNW 6.1 mph9.8 kmh 29.61 in1002.7 mb 0.00 in0.0 mm 0.00 in0.0 mm 0.12 in3.0 mm
04:12 PM 41.2°F5.1°C 44.1°F6.7°C 89% 8.1 mph WSW13.0 kmh WSW 8.1 mph13.0 kmh 29.61 in1002.7 mb 0.00 in0.0 mm 0.00 in0.0 mm 0.12 in3.0 mm
04:15 PM 41.2°F5.1°C 44.2°F6.8°C 89% 5.2 mph NNW8.4 kmh NNW 5.2 mph8.4 kmh 29.61 in1002.7 mb 0.00 in0.0 mm 0.00 in0.0 mm 0.12 in3.0 mm
04:18 PM 41.3°F5.2°C 44.1°F6.7°C 89% 5.3 mph NW8.5 kmh NW 5.3 mph8.5 kmh 29.61 in1002.7 mb 0.00 in0.0 mm 0.00 in0.0 mm 0.12 in3.0 mm
04:21 PM 41.2°F5.1°C 44.0°F6.7°C 89% 6.9 mph WNW11.1 kmh WNW 6.9 mph11.1 kmh 29.61 in1002.7 mb 0.00 in0.0 mm 0.00 in0.0 mm 0.12 in3.0 mm
04:24 PM 41.2°F5.1°C 44.4°F6.9°C 89% 7.9 mph NNW12.7 kmh NNW 8.0 mph12.9 kmh 29.61 in1002.7 mb 0.00 in0.0 mm 0.00 in0.0 mm 0.12 in3.0 mm
04:27 PM 41.2°F5.1°C 44.2°F6.8°C 89% 5.3 mph W8.5 kmh W 5.3 mph8.5 kmh 29.61 in1002.7 mb 0.00 in0.0 mm 0.00 in0.0 mm 0.12 in3.0 mm
04:30 PM 41.1°F5.1°C 44.2°F6.8°C 89% 6.1 mph WNW9.8 kmh WNW 6.1 mph9.8 kmh 29.61 in1002.7 mb 0.00 in0.0 mm 0.00 in0.0 mm 0.12 in3.0 mm
04:33 PM 41.2°F5.1°C 44.3°F6.8°C 89% 8.8 mph W14.2 kmh W 9.0 mph14.5 kmh 29.61 in1002.7 mb 0.00 in0.0 mm 0.00 in0.0 mm 0.12 in3.0 mm
04:36 PM 41.3°F5.2°C 44.0°F6.7°C 88% 7.7 mph WNW12.4 kmh WNW 7.8 mph12.6 kmh 29.61 in1002.7 mb 0.00 in0.0 mm 0.00 in0.0 mm 0.12 in3.0 mm
04:39 PM 41.3°F5.2°C 44.1°F6.7°C 89% 5.3 mph WSW8.5 kmh WSW 5.3 mph8.5 kmh 29.61 in1002.7 mb 0.00 in0.0 mm 0.00 in0.0 mm 0.12 in3.0 mm
04:42 PM 41.3°F5.2°C 43.9°F6.6°C 88% 6.9 mph NNW11.1 kmh NNW 6.9 mph11.1 kmh 29.61 in1002.7 mb 0.00 in0.0 mm 0.00 in0.0 mm 0.12 in3.0 mm
04:45 PM 41.5°F5.3°C 44.2°F6.8°C 88% 2.8 mph WNW4.5 kmh WNW 2.8 mph4.5 kmh 29.61 in1002.7 mb 0.00 in0.0 mm 0.00 in0.0 mm 0.12 in3.0 mm
04:48 PM 41.5°F5.3°C 44.2°F6.8°C 88% 6.7 mph NNW10.8 kmh NNW 6.8 mph10.9 kmh 29.61 in1002.7 mb 0.00 in0.0 mm 0.00 in0.0 mm 0.12 in3.0 mm
04:51 PM 41.5°F5.3°C 44.1°F6.7°C 88% 7.3 mph NW11.7 kmh NW 7.3 mph11.7 kmh 29.61 in1002.7 mb 0.00 in0.0 mm 0.00 in0.0 mm 0.12 in3.0 mm
04:54 PM 41.5°F5.3°C 44.1°F6.7°C 88% 5.9 mph NNW9.5 kmh NNW 6.0 mph9.7 kmh 29.61 in1002.7 mb 0.00 in0.0 mm 0.00 in0.0 mm 0.12 in3.0 mm
04:57 PM 41.5°F5.3°C 44.0°F6.7°C 88% 7.9 mph NNW12.7 kmh NNW 8.0 mph12.9 kmh 29.61 in1002.7 mb 0.00 in0.0 mm 0.00 in0.0 mm 0.12 in3.0 mm
05:00 PM 41.5°F5.3°C 44.1°F6.7°C 88% 2.8 mph W4.5 kmh W 2.9 mph4.7 kmh 29.61 in1002.7 mb 0.00 in0.0 mm 0.00 in0.0 mm 0.12 in3.0 mm
05:03 PM 41.5°F5.3°C 43.8°F6.6°C 87% 11.5 mph NNW18.5 kmh NNW 11.6 mph18.7 kmh 29.61 in1002.7 mb 0.00 in0.0 mm 0.00 in0.0 mm 0.12 in3.0 mm
05:06 PM 41.5°F5.3°C 44.1°F6.7°C 88% 2.8 mph W4.5 kmh W 2.8 mph4.5 kmh 29.61 in1002.7 mb 0.00 in0.0 mm 0.00 in0.0 mm 0.12 in3.0 mm
05:09 PM 41.6°F5.3°C 44.2°F6.8°C 88% 3.6 mph W5.8 kmh W 3.6 mph5.8 kmh 29.61 in1002.7 mb 0.00 in0.0 mm 0.00 in0.0 mm 0.12 in3.0 mm
05:12 PM 41.6°F5.3°C 44.0°F6.7°C 88% 6.1 mph 9.8 kmh 6.1 mph9.8 kmh 29.61 in1002.7 mb 0.00 in0.0 mm 0.00 in0.0 mm 0.12 in3.0 mm
05:15 PM 41.6°F5.3°C 43.9°F6.6°C 88% 8.3 mph W13.4 kmh W 8.4 mph13.5 kmh 29.61 in1002.7 mb 0.00 in0.0 mm 0.00 in0.0 mm 0.12 in3.0 mm
05:18 PM 41.6°F5.3°C 43.9°F6.6°C 88% 12.0 mph NNW19.3 kmh NNW 12.2 mph19.6 kmh 29.61 in1002.7 mb 0.00 in0.0 mm 0.00 in0.0 mm 0.12 in3.0 mm
05:21 PM 41.6°F5.3°C 44.2°F6.8°C 88% 6.3 mph NNW10.1 kmh NNW 6.4 mph10.3 kmh 29.61 in1002.7 mb 0.00 in0.0 mm 0.00 in0.0 mm 0.12 in3.0 mm
05:24 PM 41.6°F5.3°C 44.3°F6.8°C 87% 7.6 mph W12.2 kmh W 7.6 mph12.2 kmh 29.61 in1002.7 mb 0.00 in0.0 mm 0.00 in0.0 mm 0.12 in3.0 mm
05:27 PM 41.7°F5.4°C 44.1°F6.7°C 88% 6.0 mph W9.7 kmh W 6.0 mph9.7 kmh 29.61 in1002.7 mb 0.00 in0.0 mm 0.00 in0.0 mm 0.12 in3.0 mm
05:30 PM 41.7°F5.4°C 43.8°F6.6°C 87% 5.3 mph NW8.5 kmh NW 5.3 mph8.5 kmh 29.61 in1002.7 mb 0.00 in0.0 mm 0.00 in0.0 mm 0.12 in3.0 mm
05:33 PM 41.7°F5.4°C 43.9°F6.6°C 87% 10.3 mph NNW16.6 kmh NNW 10.4 mph16.7 kmh 29.61 in1002.7 mb 0.00 in0.0 mm 0.00 in0.0 mm 0.12 in3.0 mm
05:36 PM 41.8°F5.4°C 44.1°F6.7°C 87% 4.1 mph W6.6 kmh W 4.1 mph6.6 kmh 29.61 in1002.7 mb 0.00 in0.0 mm 0.00 in0.0 mm 0.12 in3.0 mm
05:39 PM 41.7°F5.4°C 44.0°F6.7°C 87% 6.8 mph W10.9 kmh W 6.8 mph10.9 kmh 29.60 in1002.4 mb 0.00 in0.0 mm 0.00 in0.0 mm 0.12 in3.0 mm
05:42 PM 41.6°F5.3°C 44.1°F6.7°C 87% 6.0 mph NNW9.7 kmh NNW 6.0 mph9.7 kmh 29.61 in1002.7 mb 0.00 in0.0 mm 0.00 in0.0 mm 0.12 in3.0 mm
05:45 PM 41.6°F5.3°C 44.0°F6.7°C 87% 3.0 mph W4.8 kmh W 3.0 mph4.8 kmh 29.61 in1002.7 mb 0.00 in0.0 mm 0.00 in0.0 mm 0.12 in3.0 mm
05:48 PM 41.6°F5.3°C 44.1°F6.7°C 87% 5.6 mph WNW9.0 kmh WNW 5.6 mph9.0 kmh 29.61 in1002.7 mb 0.00 in0.0 mm 0.00 in0.0 mm 0.12 in3.0 mm
05:51 PM 41.7°F5.4°C 44.0°F6.7°C 87% 4.2 mph NNW6.8 kmh NNW 4.3 mph6.9 kmh 29.61 in1002.7 mb 0.00 in0.0 mm 0.00 in0.0 mm 0.12 in3.0 mm
05:54 PM 41.7°F5.4°C 44.0°F6.7°C 87% 4.4 mph SW7.1 kmh SW 4.4 mph7.1 kmh 29.61 in1002.7 mb 0.00 in0.0 mm 0.00 in0.0 mm 0.12 in3.0 mm
05:57 PM 41.7°F5.4°C 43.8°F6.6°C 87% 3.2 mph NNW5.1 kmh NNW 3.2 mph5.1 kmh 29.61 in1002.7 mb 0.00 in0.0 mm 0.00 in0.0 mm 0.12 in3.0 mm
06:00 PM 41.7°F5.4°C 44.2°F6.8°C 87% 4.4 mph WNW7.1 kmh WNW 4.5 mph7.2 kmh 29.61 in1002.7 mb 0.00 in0.0 mm 0.00 in0.0 mm 0.12 in3.0 mm
06:03 PM 41.6°F5.3°C 44.1°F6.7°C 87% 5.4 mph WNW8.7 kmh WNW 5.4 mph8.7 kmh 29.61 in1002.7 mb 0.00 in0.0 mm 0.00 in0.0 mm 0.12 in3.0 mm
06:09 PM 41.7°F5.4°C 44.2°F6.8°C 88% 7.7 mph NW12.4 kmh NW 7.7 mph12.4 kmh 29.61 in1002.7 mb 0.00 in0.0 mm 0.00 in0.0 mm 0.12 in3.0 mm
06:12 PM 41.7°F5.4°C 44.3°F6.8°C 87% 9.3 mph WNW15.0 kmh WNW 9.4 mph15.1 kmh 29.61 in1002.7 mb 0.00 in0.0 mm 0.00 in0.0 mm 0.12 in3.0 mm
06:15 PM 41.7°F5.4°C 44.0°F6.7°C 87% 4.0 mph W6.4 kmh W 4.0 mph6.4 kmh 29.61 in1002.7 mb 0.00 in0.0 mm 0.00 in0.0 mm 0.12 in3.0 mm
06:18 PM 41.6°F5.3°C 44.2°F6.8°C 87% 9.7 mph WNW15.6 kmh WNW 9.8 mph15.8 kmh 29.60 in1002.4 mb 0.00 in0.0 mm 0.00 in0.0 mm 0.12 in3.0 mm
06:21 PM 41.7°F5.4°C 44.2°F6.8°C 88% 6.1 mph WNW9.8 kmh WNW 6.1 mph9.8 kmh 29.60 in1002.4 mb 0.00 in0.0 mm 0.00 in0.0 mm 0.12 in3.0 mm
06:24 PM 41.7°F5.4°C 44.1°F6.7°C 87% 10.9 mph NNW17.5 kmh NNW 11.0 mph17.7 kmh 29.60 in1002.4 mb 0.00 in0.0 mm 0.00 in0.0 mm 0.12 in3.0 mm
06:27 PM 41.7°F5.4°C 44.3°F6.8°C 87% 9.9 mph NW15.9 kmh NW 10.0 mph16.1 kmh 29.60 in1002.4 mb 0.00 in0.0 mm 0.00 in0.0 mm 0.12 in3.0 mm
06:30 PM 41.9°F5.5°C 44.3°F6.8°C 87% 4.0 mph NW6.4 kmh NW 4.1 mph6.6 kmh 29.60 in1002.4 mb 0.00 in0.0 mm 0.00 in0.0 mm 0.12 in3.0 mm
06:33 PM 41.9°F5.5°C 43.9°F6.6°C 87% 6.4 mph WNW10.3 kmh WNW 6.4 mph10.3 kmh 29.60 in1002.4 mb 0.00 in0.0 mm 0.00 in0.0 mm 0.12 in3.0 mm
06:36 PM 41.8°F5.4°C 44.2°F6.8°C 87% 5.6 mph NNW9.0 kmh NNW 5.7 mph9.2 kmh 29.59 in1002.0 mb 0.00 in0.0 mm 0.00 in0.0 mm 0.12 in3.0 mm
06:42 PM 41.9°F5.5°C 44.4°F6.9°C 87% 10.9 mph WNW17.5 kmh WNW 10.9 mph17.5 kmh 29.59 in1002.0 mb 0.00 in0.0 mm 0.00 in0.0 mm 0.12 in3.0 mm
06:45 PM 41.9°F5.5°C 44.3°F6.8°C 87% 9.3 mph WNW15.0 kmh WNW 9.3 mph15.0 kmh 29.60 in1002.4 mb 0.00 in0.0 mm 0.00 in0.0 mm 0.12 in3.0 mm
06:48 PM 41.8°F5.4°C 44.6°F7.0°C 88% 6.3 mph NW10.1 kmh NW 6.4 mph10.3 kmh 29.60 in1002.4 mb 0.00 in0.0 mm 0.00 in0.0 mm 0.12 in3.0 mm
06:51 PM 41.7°F5.4°C 44.7°F7.1°C 88% 7.9 mph WNW12.7 kmh WNW 7.9 mph12.7 kmh 29.59 in1002.0 mb 0.00 in0.0 mm 0.00 in0.0 mm 0.12 in3.0 mm
06:54 PM 41.6°F5.3°C 44.4°F6.9°C 87% 3.2 mph W5.1 kmh W 3.2 mph5.1 kmh 29.59 in1002.0 mb 0.00 in0.0 mm 0.00 in0.0 mm 0.12 in3.0 mm
06:57 PM 41.5°F5.3°C 44.5°F6.9°C 89% 6.2 mph NNW10.0 kmh NNW 6.3 mph10.1 kmh 29.59 in1002.0 mb 0.00 in0.0 mm 0.00 in0.0 mm 0.14 in3.6 mm
07:00 PM 41.5°F5.3°C 44.9°F7.2°C 89% 6.1 mph W9.8 kmh W 6.1 mph9.8 kmh 29.59 in1002.0 mb 0.00 in0.0 mm 0.00 in0.0 mm 0.14 in3.6 mm
07:03 PM 41.3°F5.2°C 44.5°F6.9°C 89% 4.7 mph NW7.6 kmh NW 4.7 mph7.6 kmh 29.58 in1001.7 mb 0.00 in0.0 mm 0.00 in0.0 mm 0.14 in3.6 mm
07:06 PM 41.3°F5.2°C 44.7°F7.1°C 89% 2.8 mph WNW4.5 kmh WNW 2.9 mph4.7 kmh 29.58 in1001.7 mb 0.00 in0.0 mm 0.00 in0.0 mm 0.14 in3.6 mm
07:09 PM 41.3°F5.2°C 44.9°F7.2°C 89% 5.2 mph WNW8.4 kmh WNW 5.2 mph8.4 kmh 29.58 in1001.7 mb 0.00 in0.0 mm 0.00 in0.0 mm 0.16 in4.1 mm
07:12 PM 41.2°F5.1°C 44.6°F7.0°C 88% 3.5 mph W5.6 kmh W 3.5 mph5.6 kmh 29.58 in1001.7 mb 0.00 in0.0 mm 0.00 in0.0 mm 0.16 in4.1 mm
07:15 PM 41.2°F5.1°C 44.8°F7.1°C 89% 5.9 mph NNW9.5 kmh NNW 6.0 mph9.7 kmh 29.58 in1001.7 mb 0.00 in0.0 mm 0.00 in0.0 mm 0.16 in4.1 mm
07:18 PM 41.2°F5.1°C 44.6°F7.0°C 89% 7.4 mph W11.9 kmh W 7.5 mph12.1 kmh 29.58 in1001.7 mb 0.00 in0.0 mm 0.00 in0.0 mm 0.16 in4.1 mm
07:21 PM 41.3°F5.2°C 44.7°F7.1°C 90% 11.3 mph WNW18.2 kmh WNW 11.3 mph18.2 kmh 29.58 in1001.7 mb 0.00 in0.0 mm 0.00 in0.0 mm 0.16 in4.1 mm
07:24 PM 41.5°F5.3°C 44.6°F7.0°C 90% 8.9 mph WNW14.3 kmh WNW 9.0 mph14.5 kmh 29.58 in1001.7 mb 0.00 in0.0 mm 0.00 in0.0 mm 0.16 in4.1 mm
07:27 PM 41.3°F5.2°C 44.6°F7.0°C 89% 2.8 mph NW4.5 kmh NW 2.8 mph4.5 kmh 29.58 in1001.7 mb 0.00 in0.0 mm 0.00 in0.0 mm 0.16 in4.1 mm
07:30 PM 41.3°F5.2°C 44.7°F7.1°C 90% 14.3 mph NNW23.0 kmh NNW 14.4 mph23.2 kmh 29.58 in1001.7 mb 0.00 in0.0 mm 0.00 in0.0 mm 0.16 in4.1 mm
07:33 PM 41.5°F5.3°C 44.9°F7.2°C 90% 4.3 mph NNW6.9 kmh NNW 4.4 mph7.1 kmh 29.58 in1001.7 mb 0.00 in0.0 mm 0.00 in0.0 mm 0.16 in4.1 mm
07:36 PM 41.3°F5.2°C 44.5°F6.9°C 89% 9.3 mph NNW15.0 kmh NNW 9.3 mph15.0 kmh 29.58 in1001.7 mb 0.00 in0.0 mm 0.00 in0.0 mm 0.16 in4.1 mm
07:39 PM 41.3°F5.2°C 44.9°F7.2°C 90% 5.2 mph NNW8.4 kmh NNW 5.3 mph8.5 kmh 29.58 in1001.7 mb 0.00 in0.0 mm 0.00 in0.0 mm 0.16 in4.1 mm
07:42 PM 41.3°F5.2°C 44.3°F6.8°C 88% 8.7 mph W14.0 kmh W 8.8 mph14.2 kmh 29.58 in1001.7 mb 0.00 in0.0 mm 0.00 in0.0 mm 0.16 in4.1 mm
07:45 PM 41.3°F5.2°C 45.0°F7.2°C 90% 9.1 mph W14.6 kmh W 9.2 mph14.8 kmh 29.58 in1001.7 mb 0.00 in0.0 mm 0.00 in0.0 mm 0.16 in4.1 mm
07:48 PM 41.3°F5.2°C 44.8°F7.1°C 90% 10.0 mph NNW16.1 kmh NNW 10.0 mph16.1 kmh 29.58 in1001.7 mb 0.00 in0.0 mm 0.00 in0.0 mm 0.16 in4.1 mm
07:51 PM 41.3°F5.2°C 44.9°F7.2°C 89% 4.0 mph W6.4 kmh W 4.1 mph6.6 kmh 29.58 in1001.7 mb 0.00 in0.0 mm 0.00 in0.0 mm 0.16 in4.1 mm
07:54 PM 41.3°F5.2°C 44.6°F7.0°C 89% 4.0 mph W6.4 kmh W 4.0 mph6.4 kmh 29.57 in1001.4 mb 0.00 in0.0 mm 0.00 in0.0 mm 0.16 in4.1 mm
07:57 PM 41.3°F5.2°C 44.6°F7.0°C 89% 6.9 mph WNW11.1 kmh WNW 6.9 mph11.1 kmh 29.57 in1001.4 mb 0.00 in0.0 mm 0.00 in0.0 mm 0.16 in4.1 mm
08:00 PM 41.5°F5.3°C 44.8°F7.1°C 89% 3.2 mph NW5.1 kmh NW 3.2 mph5.1 kmh 29.57 in1001.4 mb 0.00 in0.0 mm 0.00 in0.0 mm 0.16 in4.1 mm
08:03 PM 41.3°F5.2°C 44.7°F7.1°C 89% 5.2 mph WNW8.4 kmh WNW 5.2 mph8.4 kmh 29.57 in1001.4 mb 0.00 in0.0 mm 0.00 in0.0 mm 0.16 in4.1 mm
08:06 PM 41.5°F5.3°C 44.7°F7.1°C 89% 4.2 mph SW6.8 kmh SW 4.3 mph6.9 kmh 29.57 in1001.4 mb 0.00 in0.0 mm 0.00 in0.0 mm 0.16 in4.1 mm
08:09 PM 41.5°F5.3°C 44.9°F7.2°C 89% 9.1 mph W14.6 kmh W 9.2 mph14.8 kmh 29.56 in1001.0 mb 0.00 in0.0 mm 0.00 in0.0 mm 0.16 in4.1 mm
08:12 PM 41.5°F5.3°C 44.5°F6.9°C 89% 2.8 mph WNW4.5 kmh WNW 2.8 mph4.5 kmh 29.56 in1001.0 mb 0.00 in0.0 mm 0.00 in0.0 mm 0.16 in4.1 mm
08:15 PM 41.5°F5.3°C 44.9°F7.2°C 89% 2.8 mph W4.5 kmh W 2.8 mph4.5 kmh 29.56 in1001.0 mb 0.00 in0.0 mm 0.00 in0.0 mm 0.16 in4.1 mm
08:18 PM 41.6°F5.3°C 44.7°F7.1°C 90% 5.8 mph NNW9.3 kmh NNW 5.9 mph9.5 kmh 29.56 in1001.0 mb 0.00 in0.0 mm 0.00 in0.0 mm 0.18 in4.6 mm
08:21 PM 41.5°F5.3°C 44.7°F7.1°C 89% 6.0 mph W9.7 kmh W 6.0 mph9.7 kmh 29.57 in1001.4 mb 0.00 in0.0 mm 0.00 in0.0 mm 0.18 in4.6 mm
08:24 PM 41.6°F5.3°C 44.9°F7.2°C 90% 8.5 mph WNW13.7 kmh WNW 8.5 mph13.7 kmh 29.56 in1001.0 mb 0.00 in0.0 mm 0.00 in0.0 mm 0.18 in4.6 mm
08:27 PM 41.6°F5.3°C 45.0°F7.2°C 90% 4.4 mph WNW7.1 kmh WNW 4.5 mph7.2 kmh 29.56 in1001.0 mb 0.00 in0.0 mm 0.00 in0.0 mm 0.18 in4.6 mm
08:30 PM 41.7°F5.4°C 45.0°F7.2°C 90% 8.0 mph WNW12.9 kmh WNW 8.0 mph12.9 kmh 29.56 in1001.0 mb 0.00 in0.0 mm 0.00 in0.0 mm 0.18 in4.6 mm
08:36 PM 41.6°F5.3°C 44.8°F7.1°C 90% 13.1 mph NNW21.1 kmh NNW 13.2 mph21.2 kmh 29.55 in1000.7 mb 0.00 in0.0 mm 0.00 in0.0 mm 0.18 in4.6 mm
08:39 PM 41.7°F5.4°C 44.9°F7.2°C 90% 12.0 mph W19.3 kmh W 12.0 mph19.3 kmh 29.55 in1000.7 mb 0.00 in0.0 mm 0.00 in0.0 mm 0.18 in4.6 mm
08:42 PM 41.7°F5.4°C 45.0°F7.2°C 90% 8.3 mph WSW13.4 kmh WSW 8.4 mph13.5 kmh 29.55 in1000.7 mb 0.00 in0.0 mm 0.00 in0.0 mm 0.18 in4.6 mm
08:45 PM 41.6°F5.3°C 45.1°F7.3°C 90% 11.1 mph W17.9 kmh W 11.2 mph18.0 kmh 29.55 in1000.7 mb 0.00 in0.0 mm 0.00 in0.0 mm 0.18 in4.6 mm
08:48 PM 41.6°F5.3°C 45.0°F7.2°C 89% 10.7 mph WSW17.2 kmh WSW 10.7 mph17.2 kmh 29.55 in1000.7 mb 0.00 in0.0 mm 0.00 in0.0 mm 0.18 in4.6 mm
08:51 PM 41.6°F5.3°C 45.1°F7.3°C 90% 8.5 mph W13.7 kmh W 8.6 mph13.8 kmh 29.55 in1000.7 mb 0.00 in0.0 mm 0.00 in0.0 mm 0.20 in5.1 mm
08:54 PM 41.6°F5.3°C 45.1°F7.3°C 90% 5.7 mph W9.2 kmh W 5.7 mph9.2 kmh 29.55 in1000.7 mb 0.00 in0.0 mm 0.00 in0.0 mm 0.20 in5.1 mm
08:57 PM 41.5°F5.3°C 45.1°F7.3°C 90% 7.3 mph NNW11.7 kmh NNW 7.3 mph11.7 kmh 29.54 in1000.3 mb 0.00 in0.0 mm 0.00 in0.0 mm 0.20 in5.1 mm
09:00 PM 41.5°F5.3°C 45.3°F7.4°C 90% 6.0 mph NNW9.7 kmh NNW 6.0 mph9.7 kmh 29.54 in1000.3 mb 0.00 in0.0 mm 0.00 in0.0 mm 0.20 in5.1 mm
09:03 PM 41.5°F5.3°C 45.2°F7.3°C 90% 4.7 mph NW7.6 kmh NW 4.7 mph7.6 kmh 29.54 in1000.3 mb 0.00 in0.0 mm 0.00 in0.0 mm 0.20 in5.1 mm
09:06 PM 41.5°F5.3°C 45.2°F7.3°C 90% 4.0 mph SW6.4 kmh SW 4.1 mph6.6 kmh 29.54 in1000.3 mb 0.00 in0.0 mm 0.00 in0.0 mm 0.22 in5.6 mm
09:09 PM 41.6°F5.3°C 45.3°F7.4°C 90% 5.8 mph W9.3 kmh W 5.8 mph9.3 kmh 29.54 in1000.3 mb 0.00 in0.0 mm 0.00 in0.0 mm 0.22 in5.6 mm
09:12 PM 41.5°F5.3°C 45.0°F7.2°C 90% 13.5 mph W21.7 kmh W 13.6 mph21.9 kmh 29.53 in1000.0 mb 0.00 in0.0 mm 0.00 in0.0 mm 0.22 in5.6 mm
09:15 PM 41.5°F5.3°C 45.4°F7.4°C 91% 3.6 mph W5.8 kmh W 3.7 mph6.0 kmh 29.53 in1000.0 mb 0.00 in0.0 mm 0.00 in0.0 mm 0.22 in5.6 mm
09:18 PM 41.6°F5.3°C 45.3°F7.4°C 91% 8.9 mph NNW14.3 kmh NNW 9.0 mph14.5 kmh 29.53 in1000.0 mb 0.00 in0.0 mm 0.00 in0.0 mm 0.22 in5.6 mm
09:21 PM 41.6°F5.3°C 45.2°F7.3°C 91% 7.9 mph NNW12.7 kmh NNW 8.0 mph12.9 kmh 29.52 in999.7 mb 0.00 in0.0 mm 0.00 in0.0 mm 0.22 in5.6 mm
09:24 PM 41.7°F5.4°C 45.2°F7.3°C 91% 10.7 mph WSW17.2 kmh WSW 10.7 mph17.2 kmh 29.51 in999.3 mb 0.00 in0.0 mm 0.00 in0.0 mm 0.22 in5.6 mm
09:27 PM 41.8°F5.4°C 45.5°F7.5°C 91% 4.8 mph W7.7 kmh W 4.8 mph7.7 kmh 29.51 in999.3 mb 0.00 in0.0 mm 0.00 in0.0 mm 0.22 in5.6 mm
09:30 PM 41.8°F5.4°C 45.5°F7.5°C 91% 8.8 mph NNW14.2 kmh NNW 8.9 mph14.3 kmh 29.51 in999.3 mb 0.00 in0.0 mm 0.00 in0.0 mm 0.22 in5.6 mm
09:33 PM 41.8°F5.4°C 45.5°F7.5°C 91% 4.6 mph NNW7.4 kmh NNW 4.6 mph7.4 kmh 29.51 in999.3 mb 0.00 in0.0 mm 0.00 in0.0 mm 0.22 in5.6 mm
09:36 PM 41.8°F5.4°C 45.3°F7.4°C 91% 6.1 mph 9.8 kmh 6.1 mph9.8 kmh 29.51 in999.3 mb 0.00 in0.0 mm 0.00 in0.0 mm 0.22 in5.6 mm
09:39 PM 41.8°F5.4°C 45.6°F7.6°C 91% 8.0 mph NW12.9 kmh NW 8.0 mph12.9 kmh 29.51 in999.3 mb 0.00 in0.0 mm 0.00 in0.0 mm 0.22 in5.6 mm
09:42 PM 41.9°F5.5°C 45.6°F7.6°C 91% 4.8 mph NW7.7 kmh NW 4.8 mph7.7 kmh 29.51 in999.3 mb 0.00 in0.0 mm 0.00 in0.0 mm 0.22 in5.6 mm
09:45 PM 41.9°F5.5°C 45.6°F7.6°C 91% 9.9 mph WNW15.9 kmh WNW 10.0 mph16.1 kmh 29.51 in999.3 mb 0.00 in0.0 mm 0.00 in0.0 mm 0.22 in5.6 mm
09:48 PM 42.0°F5.6°C 45.4°F7.4°C 91% 8.1 mph W13.0 kmh W 8.1 mph13.0 kmh 29.51 in999.3 mb 0.00 in0.0 mm 0.00 in0.0 mm 0.22 in5.6 mm
09:51 PM 42.0°F5.6°C 45.8°F7.7°C 91% 6.7 mph W10.8 kmh W 6.8 mph10.9 kmh 29.51 in999.3 mb 0.00 in0.0 mm 0.00 in0.0 mm 0.22 in5.6 mm
09:54 PM 41.9°F5.5°C 45.5°F7.5°C 91% 10.1 mph W16.3 kmh W 10.1 mph16.3 kmh 29.51 in999.3 mb 0.00 in0.0 mm 0.00 in0.0 mm 0.24 in6.1 mm
09:57 PM 42.0°F5.6°C 45.6°F7.6°C 91% 4.1 mph NW6.6 kmh NW 4.1 mph6.6 kmh 29.51 in999.3 mb 0.00 in0.0 mm 0.00 in0.0 mm 0.24 in6.1 mm
10:00 PM 42.0°F5.6°C 45.6°F7.6°C 91% 3.2 mph WNW5.1 kmh WNW 3.3 mph5.3 kmh 29.51 in999.3 mb 0.00 in0.0 mm 0.00 in0.0 mm 0.24 in6.1 mm
10:03 PM 42.0°F5.6°C 45.6°F7.6°C 91% 8.1 mph WNW13.0 kmh WNW 8.1 mph13.0 kmh 29.50 in999.0 mb 0.00 in0.0 mm 0.00 in0.0 mm 0.24 in6.1 mm
10:06 PM 42.0°F5.6°C 45.7°F7.6°C 91% 6.8 mph W10.9 kmh W 6.8 mph10.9 kmh 29.50 in999.0 mb 0.00 in0.0 mm 0.00 in0.0 mm 0.24 in6.1 mm
10:09 PM 42.0°F5.6°C 45.6°F7.6°C 91% 6.8 mph W10.9 kmh W 6.8 mph10.9 kmh 29.50 in999.0 mb 0.00 in0.0 mm 0.00 in0.0 mm 0.24 in6.1 mm
10:12 PM 42.1°F5.6°C 45.6°F7.6°C 91% 10.0 mph WNW16.1 kmh WNW 10.1 mph16.3 kmh 29.50 in999.0 mb 0.00 in0.0 mm 0.00 in0.0 mm 0.24 in6.1 mm
10:15 PM 42.1°F5.6°C 45.7°F7.6°C 91% 5.7 mph W9.2 kmh W 5.7 mph9.2 kmh 29.50 in999.0 mb 0.00 in0.0 mm 0.00 in0.0 mm 0.24 in6.1 mm
10:18 PM 42.1°F5.6°C 45.3°F7.4°C 90% 4.4 mph NNW7.1 kmh NNW 4.5 mph7.2 kmh 29.49 in998.6 mb 0.00 in0.0 mm 0.00 in0.0 mm 0.24 in6.1 mm
10:21 PM 42.1°F5.6°C 45.7°F7.6°C 90% 9.3 mph NNW15.0 kmh NNW 9.4 mph15.1 kmh 29.49 in998.6 mb 0.00 in0.0 mm 0.00 in0.0 mm 0.24 in6.1 mm
10:24 PM 42.1°F5.6°C 45.5°F7.5°C 90% 5.2 mph WNW8.4 kmh WNW 5.3 mph8.5 kmh 29.49 in998.6 mb 0.00 in0.0 mm 0.00 in0.0 mm 0.24 in6.1 mm
10:27 PM 42.1°F5.6°C 45.5°F7.5°C 90% 5.7 mph SSW9.2 kmh SSW 5.7 mph9.2 kmh 29.48 in998.3 mb 0.00 in0.0 mm 0.00 in0.0 mm 0.24 in6.1 mm
10:30 PM 42.1°F5.6°C 45.5°F7.5°C 90% 17.1 mph SW27.5 kmh SW 17.2 mph27.7 kmh 29.48 in998.3 mb 0.00 in0.0 mm 0.00 in0.0 mm 0.24 in6.1 mm
10:33 PM 42.2°F5.7°C 45.5°F7.5°C 90% 4.0 mph W6.4 kmh W 4.0 mph6.4 kmh 29.48 in998.3 mb 0.00 in0.0 mm 0.00 in0.0 mm 0.24 in6.1 mm
10:36 PM 42.1°F5.6°C 45.6°F7.6°C 90% 5.9 mph W9.5 kmh W 5.9 mph9.5 kmh 29.47 in998.0 mb 0.00 in0.0 mm 0.00 in0.0 mm 0.26 in6.6 mm
10:39 PM 42.2°F5.7°C 45.5°F7.5°C 90% 7.4 mph W11.9 kmh W 7.4 mph11.9 kmh 29.47 in998.0 mb 0.00 in0.0 mm 0.00 in0.0 mm 0.26 in6.6 mm
10:42 PM 42.2°F5.7°C 45.5°F7.5°C 90% 5.7 mph WSW9.2 kmh WSW 5.7 mph9.2 kmh 29.47 in998.0 mb 0.00 in0.0 mm 0.00 in0.0 mm 0.26 in6.6 mm
10:45 PM 42.1°F5.6°C 45.5°F7.5°C 90% 2.8 mph W4.5 kmh W 2.8 mph4.5 kmh 29.46 in997.6 mb 0.00 in0.0 mm 0.00 in0.0 mm 0.26 in6.6 mm
10:48 PM 42.1°F5.6°C 45.4°F7.4°C 90% 6.1 mph NNW9.8 kmh NNW 6.1 mph9.8 kmh 29.46 in997.6 mb 0.00 in0.0 mm 0.00 in0.0 mm 0.26 in6.6 mm
10:51 PM 42.1°F5.6°C 45.7°F7.6°C 90% 7.2 mph NNW11.6 kmh NNW 7.2 mph11.6 kmh 29.45 in997.3 mb 0.00 in0.0 mm 0.00 in0.0 mm 0.26 in6.6 mm
10:54 PM 42.2°F5.7°C 45.8°F7.7°C 90% 5.2 mph NNW8.4 kmh NNW 5.2 mph8.4 kmh 29.45 in997.3 mb 0.00 in0.0 mm 0.00 in0.0 mm 0.26 in6.6 mm
10:57 PM 42.2°F5.7°C 45.6°F7.6°C 90% 8.7 mph NNW14.0 kmh NNW 8.7 mph14.0 kmh 29.45 in997.3 mb 0.00 in0.0 mm 0.00 in0.0 mm 0.26 in6.6 mm
11:00 PM 42.5°F5.8°C 45.5°F7.5°C 90% 14.5 mph W23.3 kmh W 14.6 mph23.5 kmh 29.45 in997.3 mb 0.00 in0.0 mm 0.00 in0.0 mm 0.26 in6.6 mm
11:03 PM 42.5°F5.8°C 45.6°F7.6°C 90% 5.3 mph NNW8.5 kmh NNW 5.3 mph8.5 kmh 29.45 in997.3 mb 0.00 in0.0 mm 0.00 in0.0 mm 0.26 in6.6 mm
11:06 PM 42.4°F5.8°C 45.5°F7.5°C 90% 2.8 mph W4.5 kmh W 2.9 mph4.7 kmh 29.45 in997.3 mb 0.00 in0.0 mm 0.00 in0.0 mm 0.26 in6.6 mm
11:09 PM 42.4°F5.8°C 46.0°F7.8°C 90% 6.5 mph W10.5 kmh W 6.5 mph10.5 kmh 29.44 in997.0 mb 0.00 in0.0 mm 0.00 in0.0 mm 0.26 in6.6 mm
11:12 PM 42.5°F5.8°C 45.6°F7.6°C 90% 5.6 mph NW9.0 kmh NW 5.7 mph9.2 kmh 29.44 in997.0 mb 0.00 in0.0 mm 0.00 in0.0 mm 0.26 in6.6 mm
11:15 PM 42.2°F5.7°C 45.9°F7.7°C 90% 2.4 mph W3.9 kmh W 2.4 mph3.9 kmh 29.44 in997.0 mb 0.00 in0.0 mm 0.00 in0.0 mm 0.26 in6.6 mm
11:18 PM 42.2°F5.7°C 45.9°F7.7°C 90% 5.1 mph W8.2 kmh W 5.2 mph8.4 kmh 29.43 in996.6 mb 0.00 in0.0 mm 0.00 in0.0 mm 0.26 in6.6 mm
11:21 PM 42.2°F5.7°C 45.9°F7.7°C 90% 7.7 mph SW12.4 kmh SW 7.7 mph12.4 kmh 29.42 in996.3 mb 0.00 in0.0 mm 0.00 in0.0 mm 0.26 in6.6 mm
11:24 PM 42.2°F5.7°C 46.0°F7.8°C 90% 1.2 mph W1.9 kmh W 1.2 mph1.9 kmh 29.42 in996.3 mb 0.00 in0.0 mm 0.00 in0.0 mm 0.26 in6.6 mm
11:27 PM 42.2°F5.7°C 45.9°F7.7°C 90% 4.8 mph WSW7.7 kmh WSW 4.9 mph7.9 kmh 29.42 in996.3 mb 0.00 in0.0 mm 0.00 in0.0 mm 0.26 in6.6 mm
11:30 PM 42.1°F5.6°C 46.1°F7.8°C 90% 6.2 mph SSW10.0 kmh SSW 6.3 mph10.1 kmh 29.42 in996.3 mb 0.00 in0.0 mm 0.00 in0.0 mm 0.26 in6.6 mm
11:33 PM 42.1°F5.6°C 45.8°F7.7°C 90% 4.0 mph NNW6.4 kmh NNW 4.0 mph6.4 kmh 29.41 in995.9 mb 0.00 in0.0 mm 0.00 in0.0 mm 0.26 in6.6 mm
11:36 PM 42.1°F5.6°C 45.9°F7.7°C 90% 6.9 mph W11.1 kmh W 6.9 mph11.1 kmh 29.41 in995.9 mb 0.00 in0.0 mm 0.00 in0.0 mm 0.28 in7.1 mm
11:39 PM 42.1°F5.6°C 45.8°F7.7°C 91% 7.9 mph WSW12.7 kmh WSW 8.0 mph12.9 kmh 29.41 in995.9 mb 0.00 in0.0 mm 0.00 in0.0 mm 0.28 in7.1 mm
11:42 PM 42.2°F5.7°C 45.9°F7.7°C 91% 7.2 mph W11.6 kmh W 7.3 mph11.7 kmh 29.41 in995.9 mb 0.00 in0.0 mm 0.00 in0.0 mm 0.28 in7.1 mm
11:45 PM 42.2°F5.7°C 45.8°F7.7°C 90% 5.5 mph WNW8.9 kmh WNW 5.5 mph8.9 kmh 29.41 in995.9 mb 0.00 in0.0 mm 0.00 in0.0 mm 0.28 in7.1 mm
11:48 PM 42.1°F5.6°C 46.1°F7.8°C 91% 5.7 mph W9.2 kmh W 5.7 mph9.2 kmh 29.41 in995.9 mb 0.00 in0.0 mm 0.00 in0.0 mm 0.28 in7.1 mm
11:51 PM 42.1°F5.6°C 46.0°F7.8°C 91% 3.6 mph WSW5.8 kmh WSW 3.7 mph6.0 kmh 29.39 in995.3 mb 0.00 in0.0 mm 0.00 in0.0 mm 0.28 in7.1 mm
11:54 PM 42.1°F5.6°C 45.9°F7.7°C 91% 3.6 mph W5.8 kmh W 3.7 mph6.0 kmh 29.40 in995.6 mb 0.00 in0.0 mm 0.00 in0.0 mm 0.28 in7.1 mm
11:57 PM 42.1°F5.6°C 45.9°F7.7°C 90% 6.4 mph W10.3 kmh W 6.5 mph10.5 kmh 29.39 in995.3 mb 0.00 in0.0 mm 0.00 in0.0 mm 0.28 in7.1 mm